M I D A S
Marine Information and Data Acquisition System
Tripno 998 of the Zeeleeuw from 2005-07-18 09:06:22 to 2005-07-18 11:51:56
Back to CruiseResearch ActivitiesStationsMapUnderway DataData graphs

EquipmentUnitsComment
TimeDGPSUTC
LatitudeDGPSDM.mWGS84
LongitudeDGPSDM.mWGS84
TemperatureSBE03/SBE38deg celciusITS90
ConductivitySBE21S/mITS90
SalinitySBE21 Practical Salinity Units
ChlorophylAChelsea fluorimeterg/lCalibrated in Aceton
Missing or incorrect values are displayed as -999
Sea surface data collected by the RV Zeeleeuw from 2005-07-18 08:07:49 to 2005-07-18 12:01:33
                                                                                    Next 1000 lines
Time Latitude Longitude Temperature Conductivity Salinity ChlorophylA
2005-07-18 08:07:59 51°13.707 2°55.869 22.8831 4.774553 30.834004 -0.578993
2005-07-18 08:08:04 51°13.707 2°55.869 22.8832 4.774447 30.833686 -0.578993
2005-07-18 08:08:09 51°13.707 2°55.869 22.8835 4.774342 30.832924 -0.578993
2005-07-18 08:08:14 51°13.707 2°55.869 22.8831 4.774342 30.832924 -0.612702
2005-07-18 08:08:19 51°13.707 2°55.869 22.8835 4.774342 30.833368 -0.578993
2005-07-18 08:08:24 51°13.707 2°55.869 22.8838 4.774342 30.833368 -0.578993
2005-07-18 08:08:29 51°13.707 2°55.869 22.8826 4.774236 30.83305 -0.578993
2005-07-18 08:08:33 51°13.707 2°55.869 22.8833 4.774236 30.83305 -0.578993
2005-07-18 08:08:39 51°13.707 2°55.869 22.8821 4.774236 30.833494 -0.578993
2005-07-18 08:08:44 51°13.707 2°55.869 22.882 4.774131 30.833176 -0.612702
2005-07-18 08:08:49 51°13.707 2°55.869 22.8812 4.774131 30.833621 -0.612702
2005-07-18 08:08:54 51°13.707 2°55.869 22.8814 4.774131 30.833621 -0.612702
2005-07-18 08:08:59 51°13.707 2°55.869 22.8813 4.774131 30.834509 -0.612702
2005-07-18 08:09:04 51°13.707 2°55.869 22.8806 4.774025 30.833747 -0.578993
2005-07-18 08:09:09 51°13.707 2°55.869 22.881 4.774025 30.833747 -0.612702
2005-07-18 08:09:14 51°13.707 2°55.869 22.8812 4.77392 30.833429 -0.612702
2005-07-18 08:09:19 51°13.707 2°55.869 22.88 4.774025 30.834635 -0.578993
2005-07-18 08:09:24 51°13.707 2°55.869 22.8804 4.774025 30.834635 -0.578993
2005-07-18 08:09:29 51°13.707 2°55.869 22.8794 4.77392 30.833873 -0.578993
2005-07-18 08:09:33 51°13.707 2°55.869 22.8786 4.77392 30.834318 -0.545283
2005-07-18 08:09:39 51°13.707 2°55.869 22.8783 4.773814 30.833111 -0.578993
2005-07-18 08:09:43 51°13.707 2°55.869 22.8781 4.77392 30.834318 -0.578993
2005-07-18 08:09:49 51°13.707 2°55.869 22.8758 4.773814 30.834 -0.612702
2005-07-18 08:09:54 51°13.707 2°55.869 22.8749 4.773814 30.834 -0.612702
2005-07-18 08:09:59 51°13.707 2°55.869 22.8745 4.773709 30.833682 -0.578993
2005-07-18 08:10:04 51°13.707 2°55.869 22.8742 4.773709 30.834126 -0.578993
2005-07-18 08:10:09 51°13.707 2°55.869 22.8736 4.773603 30.833808 -0.612702
2005-07-18 08:10:14 51°13.707 2°55.869 22.8729 4.773709 30.835459 -0.612702
2005-07-18 08:10:19 51°13.707 2°55.869 22.8733 4.773603 30.834252 -0.578993
2005-07-18 08:10:24 51°13.707 2°55.869 22.8725 4.773603 30.834252 -0.578993
2005-07-18 08:10:29 51°13.707 2°55.869 22.8728 4.773498 30.83349 -0.612702
2005-07-18 08:10:33 51°13.707 2°55.868 22.8744 4.773498 30.833046 -0.578993
2005-07-18 08:10:39 51°13.707 2°55.868 22.8758 4.773393 30.833172 -0.612702
2005-07-18 08:10:44 51°13.707 2°55.868 22.8773 4.773498 30.834823 -0.578993
2005-07-18 08:10:49 51°13.707 2°55.868 22.8769 4.773393 30.834061 -0.578993
2005-07-18 08:10:53 51°13.707 2°55.868 22.8777 4.773393 30.834061 -0.578993
2005-07-18 08:10:59 51°13.707 2°55.868 22.877 4.773393 30.834505 -0.578993
2005-07-18 08:11:04 51°13.707 2°55.868 22.8771 4.773393 30.834949 -0.612702
2005-07-18 08:11:09 51°13.707 2°55.868 22.8763 4.773287 30.834187 -0.612702
2005-07-18 08:11:13 51°13.707 2°55.868 22.8764 4.773182 30.833869 -0.578993
2005-07-18 08:11:19 51°13.707 2°55.868 22.8754 4.773182 30.834313 -0.578993
2005-07-18 08:11:24 51°13.707 2°55.868 22.8744 4.773182 30.834313 -0.578993
2005-07-18 08:11:29 51°13.707 2°55.868 22.8727 4.773076 30.833551 -0.578993
2005-07-18 08:11:33 51°13.707 2°55.868 22.872 4.773076 30.833551 -0.578993
2005-07-18 08:11:39 51°13.707 2°55.868 22.8726 4.773182 30.834758 -0.578993
2005-07-18 08:11:44 51°13.707 2°55.868 22.8722 4.773076 30.833995 -0.578993
2005-07-18 08:11:49 51°13.707 2°55.868 22.8728 4.772971 30.834122 -0.578993
2005-07-18 08:11:54 51°13.707 2°55.868 22.8742 4.772971 30.834122 -0.578993
2005-07-18 08:11:59 51°13.707 2°55.868 22.8761 4.772971 30.834566 -0.578993
2005-07-18 08:12:04 51°13.707 2°55.868 22.8773 4.772865 30.833804 -0.612702
2005-07-18 08:12:09 51°13.707 2°55.868 22.8784 4.772865 30.834248 -0.578993
2005-07-18 08:12:14 51°13.707 2°55.868 22.8792 4.772971 30.835455 -0.578993
2005-07-18 08:12:19 51°13.707 2°55.868 22.881 4.772865 30.834693 -0.612702
2005-07-18 08:12:24 51°13.706 2°55.869 22.8804 4.772865 30.834693 -0.612702
2005-07-18 08:12:29 51°13.706 2°55.869 22.8802 4.772865 30.835137 -0.612702
2005-07-18 08:12:34 51°13.706 2°55.869 22.8818 4.772654 30.834057 -0.578993
2005-07-18 08:12:39 51°13.706 2°55.869 22.882 4.77276 30.834819 -0.578993
2005-07-18 08:12:44 51°13.706 2°55.869 22.8838 4.772654 30.834501 -0.612702
2005-07-18 08:12:49 51°13.706 2°55.869 22.8846 4.772654 30.834946 -0.578993
2005-07-18 08:12:54 51°13.706 2°55.869 22.8838 4.772654 30.834946 -0.578993
2005-07-18 08:12:59 51°13.706 2°55.869 22.8831 4.772549 30.834183 -0.578993
2005-07-18 08:13:04 51°13.706 2°55.869 22.8833 4.772443 30.83431 -0.578993
2005-07-18 08:13:09 51°13.706 2°55.869 22.8835 4.772549 30.834628 -0.578993
2005-07-18 08:13:13 51°13.706 2°55.869 22.8835 4.772443 30.83431 -0.578993
2005-07-18 08:13:19 51°13.706 2°55.869 22.883 4.772443 30.834754 -0.578993
2005-07-18 08:13:24 51°13.706 2°55.869 22.8823 4.772443 30.834754 -0.578993
2005-07-18 08:13:29 51°13.706 2°55.869 22.881 4.772338 30.833992 -0.612702
2005-07-18 08:13:34 51°13.706 2°55.87 22.8806 4.772338 30.835325 -0.578993
2005-07-18 08:13:39 51°13.706 2°55.869 22.8788 4.772232 30.834118 -0.578993
2005-07-18 08:13:44 51°13.706 2°55.869 22.8785 4.772232 30.834563 -0.612702
2005-07-18 08:13:49 51°13.706 2°55.869 22.8789 4.772232 30.835007 -0.578993
2005-07-18 08:13:54 51°13.706 2°55.869 22.8788 4.772232 30.835007 -0.578993
2005-07-18 08:13:59 51°13.706 2°55.869 22.8786 4.772127 30.834245 -0.578993
2005-07-18 08:14:04 51°13.706 2°55.869 22.8791 4.772127 30.834245 -0.612702
2005-07-18 08:14:09 51°13.706 2°55.869 22.8794 4.772127 30.834689 -0.578993
2005-07-18 08:14:13 51°13.706 2°55.869 22.8806 4.772021 30.834816 -0.578993
2005-07-18 08:14:19 51°13.706 2°55.869 22.8814 4.772021 30.834816 -0.578993
2005-07-18 08:14:23 51°13.706 2°55.87 22.8823 4.772021 30.834816 -0.578993
2005-07-18 08:14:29 51°13.706 2°55.87 22.8832 4.772021 30.834816 -0.612702
2005-07-18 08:14:33 51°13.706 2°55.869 22.8837 4.77181 30.83418 -0.612702
2005-07-18 08:14:39 51°13.706 2°55.869 22.8849 4.771916 30.835387 -0.578993
2005-07-18 08:14:44 51°13.706 2°55.869 22.8848 4.771916 30.835387 -0.578993
2005-07-18 08:14:49 51°13.706 2°55.869 22.8853 4.771916 30.835387 -0.612702
2005-07-18 08:14:54 51°13.706 2°55.869 22.8843 4.771916 30.835387 -0.612702
2005-07-18 08:14:59 51°13.707 2°55.869 22.8839 4.771916 30.836276 -0.578993
2005-07-18 08:15:04 51°13.707 2°55.869 22.8834 4.771705 30.834306 -0.578993
2005-07-18 08:15:09 51°13.707 2°55.869 22.8841 4.771705 30.835196 -0.578993
2005-07-18 08:15:13 51°13.707 2°55.869 22.8831 4.771705 30.835196 -0.578993
2005-07-18 08:15:19 51°13.707 2°55.869 22.8834 4.771599 30.834433 -0.578993
2005-07-18 08:15:24 51°13.707 2°55.869 22.8846 4.771599 30.834433 -0.578993
2005-07-18 08:15:29 51°13.707 2°55.869 22.8843 4.771599 30.834878 -0.578993
2005-07-18 08:15:33 51°13.707 2°55.869 22.8848 4.771494 30.83456 -0.578993
2005-07-18 08:15:39 51°13.707 2°55.869 22.8846 4.771599 30.835322 -0.578993
2005-07-18 08:15:44 51°13.707 2°55.869 22.8846 4.771494 30.835004 -0.578993
2005-07-18 08:15:49 51°13.707 2°55.869 22.8854 4.771494 30.83456 -0.578993
2005-07-18 08:15:54 51°13.707 2°55.869 22.8856 4.771494 30.83456 -0.578993
2005-07-18 08:15:59 51°13.707 2°55.869 22.885 4.771388 30.835131 -0.612702
2005-07-18 08:16:03 51°13.707 2°55.869 22.8853 4.771283 30.834813 -0.578993
2005-07-18 08:16:09 51°13.707 2°55.869 22.8848 4.771283 30.834813 -0.612702
2005-07-18 08:16:14 51°13.707 2°55.869 22.8857 4.771283 30.835257 -0.578993
2005-07-18 08:16:19 51°13.707 2°55.869 22.8852 4.771283 30.835257 -0.578993
2005-07-18 08:16:24 51°13.707 2°55.869 22.8858 4.771283 30.835257 -0.578993
2005-07-18 08:16:29 51°13.707 2°55.869 22.8869 4.771178 30.834939 -0.578993
2005-07-18 08:16:34 51°13.707 2°55.869 22.8868 4.771072 30.834177 -0.612702
2005-07-18 08:16:39 51°13.707 2°55.869 22.8855 4.771178 30.835829 -0.612702
2005-07-18 08:16:44 51°13.707 2°55.869 22.8869 4.771072 30.834621 -0.578993
2005-07-18 08:16:49 51°13.707 2°55.869 22.888 4.771072 30.835511 -0.578993
2005-07-18 08:16:53 51°13.707 2°55.869 22.8886 4.771072 30.835511 -0.578993
2005-07-18 08:16:59 51°13.707 2°55.869 22.889 4.770967 30.834748 -0.612702
2005-07-18 08:17:04 51°13.707 2°55.869 22.8893 4.771072 30.835511 -0.578993
2005-07-18 08:17:09 51°13.707 2°55.869 22.8911 4.770967 30.835193 -0.578993
2005-07-18 08:17:13 51°13.707 2°55.869 22.8907 4.770861 30.834875 -0.578993
2005-07-18 08:17:19 51°13.707 2°55.869 22.8916 4.770861 30.83443 -0.578993
2005-07-18 08:17:24 51°13.707 2°55.869 22.8919 4.770861 30.83443 -0.578993
2005-07-18 08:17:29 51°13.707 2°55.869 22.8941 4.770861 30.835319 -0.578993
2005-07-18 08:17:33 51°13.707 2°55.869 22.8966 4.77065 30.834239 -0.545283
2005-07-18 08:17:39 51°13.706 2°55.869 22.8988 4.770861 30.835764 -0.578993
2005-07-18 08:17:44 51°13.706 2°55.869 22.899 4.770756 30.835446 -0.578993
2005-07-18 08:17:49 51°13.706 2°55.869 22.8995 4.770756 30.835891 -0.578993
2005-07-18 08:17:53 51°13.706 2°55.869 22.9001 4.770756 30.835891 -0.578993
2005-07-18 08:17:59 51°13.707 2°55.869 22.8985 4.770545 30.834365 -0.612702
2005-07-18 08:18:04 51°13.707 2°55.869 22.8967 4.77065 30.835573 -0.578993
2005-07-18 08:18:09 51°13.706 2°55.869 22.8973 4.770756 30.836336 -0.578993
2005-07-18 08:18:13 51°13.706 2°55.869 22.8976 4.770545 30.83481 -0.578993
2005-07-18 08:18:19 51°13.706 2°55.869 22.8993 4.770545 30.8357 -0.578993
2005-07-18 08:18:24 51°13.706 2°55.869 22.8987 4.770545 30.8357 -0.578993
2005-07-18 08:18:29 51°13.706 2°55.869 22.8977 4.770439 30.834937 -0.578993
2005-07-18 08:18:34 51°13.706 2°55.869 22.8984 4.770545 30.8357 -0.578993
2005-07-18 08:18:39 51°13.706 2°55.869 22.8977 4.770439 30.835382 -0.578993
2005-07-18 08:18:44 51°13.706 2°55.869 22.8985 4.770334 30.835064 -0.578993
2005-07-18 08:18:49 51°13.706 2°55.869 22.8997 4.770334 30.835508 -0.578993
2005-07-18 08:18:54 51°13.707 2°55.869 22.8985 4.770334 30.835508 -0.578993
2005-07-18 08:18:59 51°13.707 2°55.869 22.8994 4.770439 30.836271 -0.578993
2005-07-18 08:19:04 51°13.707 2°55.869 22.8979 4.770334 30.835508 -0.612702
2005-07-18 08:19:09 51°13.707 2°55.869 22.8991 4.770228 30.83519 -0.578993
2005-07-18 08:19:14 51°13.707 2°55.869 22.8979 4.770334 30.835953 -0.578993
2005-07-18 08:19:19 51°13.707 2°55.869 22.899 4.770228 30.835635 -0.612702
2005-07-18 08:19:24 51°13.707 2°55.869 22.9001 4.770228 30.835635 -0.612702
2005-07-18 08:19:29 51°13.707 2°55.868 22.901 4.770123 30.835317 -0.612702
2005-07-18 08:19:34 51°13.707 2°55.869 22.9011 4.770123 30.835762 -0.578993
2005-07-18 08:19:39 51°13.707 2°55.869 22.9013 4.770017 30.834554 -0.578993
2005-07-18 08:19:44 51°13.707 2°55.869 22.9015 4.770017 30.834999 -0.612702
2005-07-18 08:19:49 51°13.707 2°55.868 22.9015 4.769912 30.835126 -0.578993
2005-07-18 08:19:53 51°13.707 2°55.868 22.9017 4.769912 30.835126 -0.578993
2005-07-18 08:19:59 51°13.707 2°55.868 22.9027 4.769912 30.834681 -0.578993
2005-07-18 08:20:04 51°13.707 2°55.868 22.9019 4.769912 30.835126 -0.612702
2005-07-18 08:20:09 51°13.707 2°55.868 22.9028 4.769912 30.835571 -0.612702
2005-07-18 08:20:14 51°13.707 2°55.868 22.9034 4.769912 30.835571 -0.578993
2005-07-18 08:20:19 51°13.707 2°55.868 22.9034 4.769806 30.835253 -0.578993
2005-07-18 08:20:24 51°13.707 2°55.868 22.9036 4.769806 30.835253 -0.578993
2005-07-18 08:20:29 51°13.707 2°55.868 22.9028 4.769806 30.835697 -0.578993
2005-07-18 08:20:34 51°13.707 2°55.868 22.9041 4.769806 30.835697 -0.612702
2005-07-18 08:20:39 51°13.707 2°55.868 22.9031 4.769806 30.835697 -0.578993
2005-07-18 08:20:44 51°13.707 2°55.868 22.9036 4.769701 30.835379 -0.612702
2005-07-18 08:20:49 51°13.707 2°55.868 22.9034 4.769595 30.834616 -0.578993
2005-07-18 08:20:53 51°13.707 2°55.868 22.9035 4.769595 30.834616 -0.578993
2005-07-18 08:20:59 51°13.707 2°55.868 22.9034 4.769701 30.835824 -0.578993
2005-07-18 08:21:04 51°13.707 2°55.868 22.9039 4.769595 30.835061 -0.612702
2005-07-18 08:21:09 51°13.707 2°55.868 22.903 4.769701 30.836269 -0.578993
2005-07-18 08:21:14 51°13.707 2°55.868 22.9037 4.76949 30.834743 -0.545283
2005-07-18 08:21:19 51°13.707 2°55.868 22.9041 4.76949 30.834743 -0.578993
2005-07-18 08:21:24 51°13.707 2°55.868 22.904 4.76949 30.834743 -0.578993
2005-07-18 08:21:29 51°13.707 2°55.868 22.9037 4.76949 30.835188 -0.578993
2005-07-18 08:21:34 51°13.707 2°55.868 22.9029 4.76949 30.835188 -0.612702
2005-07-18 08:21:39 51°13.707 2°55.868 22.905 4.769384 30.83487 -0.578993
2005-07-18 08:21:44 51°13.707 2°55.868 22.9048 4.769384 30.835315 -0.578993
2005-07-18 08:21:49 51°13.707 2°55.868 22.9063 4.76949 30.836078 -0.612702
2005-07-18 08:21:54 51°13.708 2°55.868 22.907 4.76949 30.836078 -0.612702
2005-07-18 08:21:59 51°13.708 2°55.867 22.907 4.769384 30.83576 -0.578993
2005-07-18 08:22:04 51°13.708 2°55.867 22.907 4.769384 30.836205 -0.578993
2005-07-18 08:22:09 51°13.708 2°55.867 22.9086 4.769279 30.835887 -0.578993
2005-07-18 08:22:13 51°13.707 2°55.867 22.9091 4.769279 30.835887 -0.578993
2005-07-18 08:22:19 51°13.707 2°55.867 22.9097 4.769173 30.834679 -0.578993
2005-07-18 08:22:24 51°13.707 2°55.867 22.9099 4.769173 30.834679 -0.578993
2005-07-18 08:22:29 51°13.707 2°55.867 22.9094 4.769279 30.835887 -0.545283
2005-07-18 08:22:34 51°13.707 2°55.868 22.9086 4.769174 30.835569 -0.578993
2005-07-18 08:22:39 51°13.707 2°55.868 22.9074 4.769174 30.836014 -0.612702
2005-07-18 08:22:44 51°13.707 2°55.868 22.9073 4.769174 30.835569 -0.612702
2005-07-18 08:22:49 51°13.707 2°55.868 22.9092 4.769068 30.835696 -0.578993
2005-07-18 08:22:54 51°13.707 2°55.868 22.9097 4.769068 30.835696 -0.578993
2005-07-18 08:22:59 51°13.707 2°55.868 22.9105 4.769068 30.835696 -0.578993
2005-07-18 08:23:04 51°13.707 2°55.868 22.9098 4.769068 30.835696 -0.578993
2005-07-18 08:23:09 51°13.707 2°55.868 22.9111 4.768963 30.835378 -0.578993
2005-07-18 08:23:13 51°13.707 2°55.868 22.9112 4.768857 30.835059 -0.578993
2005-07-18 08:23:19 51°13.707 2°55.868 22.9109 4.768963 30.835378 -0.578993
2005-07-18 08:23:24 51°13.707 2°55.868 22.9119 4.768963 30.835378 -0.578993
2005-07-18 08:23:29 51°13.707 2°55.867 22.9108 4.768963 30.836268 -0.578993
2005-07-18 08:23:33 51°13.707 2°55.867 22.9106 4.768752 30.834741 -0.578993
2005-07-18 08:23:39 51°13.707 2°55.866 22.9108 4.768752 30.835186 -0.578993
2005-07-18 08:23:44 51°13.707 2°55.867 22.9104 4.768857 30.83595 -0.578993
2005-07-18 08:23:49 51°13.707 2°55.867 22.9107 4.768646 30.834868 -0.578993
2005-07-18 08:23:53 51°13.707 2°55.867 22.9111 4.768646 30.834868 -0.578993
2005-07-18 08:23:59 51°13.707 2°55.867 22.9103 4.768752 30.835631 -0.612702
2005-07-18 08:24:04 51°13.707 2°55.867 22.9089 4.768752 30.835631 -0.578993
2005-07-18 08:24:09 51°13.707 2°55.867 22.9082 4.768646 30.835313 -0.578993
2005-07-18 08:24:14 51°13.707 2°55.867 22.9099 4.768646 30.835758 -0.578993
2005-07-18 08:24:19 51°13.707 2°55.867 22.9099 4.768541 30.834995 -0.578993
2005-07-18 08:24:24 51°13.707 2°55.868 22.9097 4.768541 30.834995 -0.578993
2005-07-18 08:24:29 51°13.707 2°55.868 22.91 4.768541 30.83544 -0.612702
2005-07-18 08:24:33 51°13.707 2°55.868 22.9095 4.768646 30.837094 -0.612702
2005-07-18 08:24:39 51°13.706 2°55.869 22.9099 4.768435 30.835122 -0.612702
2005-07-18 08:24:44 51°13.706 2°55.869 22.9097 4.768541 30.83633 -0.612702
2005-07-18 08:24:49 51°13.706 2°55.87 22.9104 4.768541 30.83633 -0.578993
2005-07-18 08:24:54 51°13.706 2°55.87 22.9106 4.768541 30.83633 -0.578993
2005-07-18 08:24:59 51°13.707 2°55.871 22.911 4.768435 30.836012 -0.578993
2005-07-18 08:25:04 51°13.707 2°55.871 22.9107 4.76833 30.835694 -0.578993
2005-07-18 08:25:09 51°13.707 2°55.87 22.9118 4.76833 30.835694 -0.578993
2005-07-18 08:25:13 51°13.707 2°55.87 22.912 4.768435 30.836903 -0.578993
2005-07-18 08:25:19 51°13.706 2°55.87 22.9122 4.768224 30.835376 -0.612702
2005-07-18 08:25:24 51°13.706 2°55.87 22.9101 4.768224 30.835376 -0.612702
2005-07-18 08:25:29 51°13.707 2°55.87 22.9108 4.76833 30.836139 -0.578993
2005-07-18 08:25:33 51°13.707 2°55.87 22.9107 4.768224 30.835821 -0.578993
2005-07-18 08:25:39 51°13.707 2°55.87 22.9102 4.76833 30.836584 -0.578993
2005-07-18 08:25:44 51°13.707 2°55.871 22.9107 4.76833 30.836139 -0.578993
2005-07-18 08:25:49 51°13.707 2°55.871 22.9108 4.768224 30.836266 -0.612702
2005-07-18 08:25:54 51°13.707 2°55.871 22.9118 4.768224 30.836266 -0.612702
2005-07-18 08:25:59 51°13.707 2°55.87 22.9118 4.768119 30.835503 -0.578993
2005-07-18 08:26:04 51°13.706 2°55.87 22.9127 4.768224 30.836711 -0.578993
2005-07-18 08:26:09 51°13.706 2°55.869 22.9135 4.768013 30.83563 -0.578993
2005-07-18 08:26:14 51°13.706 2°55.868 22.9138 4.768119 30.836393 -0.578993
2005-07-18 08:26:19 51°13.706 2°55.868 22.9148 4.768013 30.836075 -0.578993
2005-07-18 08:26:24 51°13.706 2°55.868 22.9163 4.768013 30.836075 -0.578993
2005-07-18 08:26:29 51°13.706 2°55.867 22.914 4.768013 30.836075 -0.612702
2005-07-18 08:26:34 51°13.706 2°55.867 22.9135 4.768013 30.83652 -0.612702
2005-07-18 08:26:39 51°13.706 2°55.867 22.9146 4.768013 30.83652 -0.612702
2005-07-18 08:26:44 51°13.706 2°55.867 22.9159 4.767908 30.835757 -0.578993
2005-07-18 08:26:49 51°13.706 2°55.868 22.9167 4.767908 30.836647 -0.578993
2005-07-18 08:26:54 51°13.706 2°55.868 22.9157 4.767908 30.836647 -0.578993
2005-07-18 08:26:59 51°13.706 2°55.868 22.9149 4.767802 30.835884 -0.578993
2005-07-18 08:27:04 51°13.706 2°55.868 22.9164 4.767802 30.835884 -0.578993
2005-07-18 08:27:09 51°13.706 2°55.868 22.9177 4.767802 30.836329 -0.578993
2005-07-18 08:27:14 51°13.706 2°55.868 22.9174 4.767802 30.836775 -0.545283
2005-07-18 08:27:19 51°13.706 2°55.868 22.9177 4.767697 30.836456 -0.578993
2005-07-18 08:27:24 51°13.706 2°55.868 22.917 4.767697 30.836456 -0.578993
2005-07-18 08:27:29 51°13.706 2°55.868 22.9173 4.767697 30.836456 -0.578993
2005-07-18 08:27:33 51°13.706 2°55.868 22.9185 4.767591 30.836138 -0.578993
2005-07-18 08:27:39 51°13.706 2°55.868 22.9207 4.767591 30.836138 -0.578993
2005-07-18 08:27:44 51°13.706 2°55.868 22.9195 4.767591 30.836138 -0.578993
2005-07-18 08:27:49 51°13.706 2°55.868 22.9196 4.767591 30.836584 -0.578993
2005-07-18 08:27:53 51°13.706 2°55.868 22.9203 4.767591 30.836584 -0.578993
2005-07-18 08:27:59 51°13.706 2°55.868 22.9207 4.767591 30.837029 -0.578993
2005-07-18 08:28:04 51°13.706 2°55.868 22.9209 4.767486 30.836711 -0.545283
2005-07-18 08:28:09 51°13.706 2°55.868 22.9205 4.767591 30.837474 -0.578993
2005-07-18 08:28:14 51°13.706 2°55.868 22.9213 4.767486 30.836711 -0.612702
2005-07-18 08:28:19 51°13.706 2°55.868 22.9225 4.76738 30.836838 -0.578993
2005-07-18 08:28:24 51°13.706 2°55.868 22.9213 4.76738 30.836838 -0.578993
2005-07-18 08:28:29 51°13.706 2°55.868 22.9215 4.76738 30.836392 -0.545283
2005-07-18 08:28:34 51°13.706 2°55.868 22.9223 4.767275 30.83652 -0.612702
2005-07-18 08:28:39 51°13.706 2°55.869 22.9219 4.76738 30.837283 -0.578993
2005-07-18 08:28:44 51°13.706 2°55.869 22.9209 4.767275 30.83652 -0.578993
2005-07-18 08:28:49 51°13.706 2°55.869 22.9214 4.76738 30.837728 -0.578993
2005-07-18 08:28:53 51°13.706 2°55.869 22.9216 4.76738 30.837728 -0.578993
2005-07-18 08:28:59 51°13.706 2°55.869 22.922 4.76738 30.837728 -0.612702
2005-07-18 08:29:04 51°13.706 2°55.869 22.9229 4.767169 30.836647 -0.578993
2005-07-18 08:29:09 51°13.706 2°55.869 22.9241 4.767275 30.83741 -0.612702
2005-07-18 08:29:13 51°13.706 2°55.868 22.9238 4.767169 30.837092 -0.578993
2005-07-18 08:29:19 51°13.706 2°55.868 22.9248 4.766958 30.835565 -0.578993
2005-07-18 08:29:24 51°13.706 2°55.869 22.9252 4.766958 30.835565 -0.578993
2005-07-18 08:29:29 51°13.706 2°55.869 22.9253 4.767169 30.837092 -0.578993
2005-07-18 08:29:33 51°13.706 2°55.868 22.9254 4.767169 30.837537 -0.578993
2005-07-18 08:29:39 51°13.706 2°55.868 22.9264 4.767169 30.837537 -0.578993
2005-07-18 08:29:44 51°13.706 2°55.868 22.9271 4.767064 30.837665 -0.578993
2005-07-18 08:29:49 51°13.706 2°55.868 22.9268 4.766959 30.836901 -0.578993
2005-07-18 08:29:54 51°13.706 2°55.868 22.9262 4.766959 30.836901 -0.578993
2005-07-18 08:29:59 51°13.706 2°55.868 22.9264 4.766853 30.836583 -0.578993
2005-07-18 08:30:04 51°13.706 2°55.867 22.9271 4.766959 30.837346 -0.578993
2005-07-18 08:30:09 51°13.706 2°55.867 22.9267 4.766853 30.836583 -0.578993
2005-07-18 08:30:14 51°13.706 2°55.867 22.9278 4.766853 30.837028 -0.578993
2005-07-18 08:30:19 51°13.706 2°55.867 22.9282 4.766748 30.837155 -0.578993
2005-07-18 08:30:24 51°13.706 2°55.867 22.928 4.766748 30.837155 -0.578993
2005-07-18 08:30:29 51°13.706 2°55.867 22.9277 4.766748 30.83671 -0.578993
2005-07-18 08:30:34 51°13.706 2°55.867 22.9289 4.766853 30.837474 -0.578993
2005-07-18 08:30:39 51°13.706 2°55.867 22.9295 4.766853 30.837919 -0.612702
2005-07-18 08:30:44 51°13.706 2°55.867 22.93 4.766748 30.837601 -0.578993
2005-07-18 08:30:49 51°13.706 2°55.867 22.9302 4.766642 30.836837 -0.578993
2005-07-18 08:30:54 51°13.706 2°55.867 22.9314 4.766642 30.836837 -0.578993
2005-07-18 08:30:59 51°13.706 2°55.867 22.9297 4.766748 30.838046 -0.578993
2005-07-18 08:31:04 51°13.706 2°55.868 22.9304 4.766642 30.837283 -0.612702
2005-07-18 08:31:09 51°13.706 2°55.867 22.9301 4.766537 30.836519 -0.578993
2005-07-18 08:31:13 51°13.706 2°55.868 22.9294 4.766642 30.838173 -0.578993
2005-07-18 08:31:19 51°13.706 2°55.868 22.93 4.766537 30.83741 -0.578993
2005-07-18 08:31:24 51°13.706 2°55.868 22.9315 4.766537 30.83741 -0.578993
2005-07-18 08:31:29 51°13.706 2°55.868 22.9321 4.766537 30.837855 -0.578993
2005-07-18 08:31:34 51°13.706 2°55.868 22.9323 4.766642 30.838619 -0.578993
2005-07-18 08:31:39 51°13.706 2°55.868 22.9331 4.766537 30.837855 -0.578993
2005-07-18 08:31:44 51°13.706 2°55.868 22.9332 4.766431 30.837537 -0.612702
2005-07-18 08:31:49 51°13.706 2°55.869 22.9327 4.766431 30.837983 -0.578993
2005-07-18 08:31:53 51°13.706 2°55.869 22.9318 4.766431 30.837983 -0.578993
2005-07-18 08:31:59 51°13.706 2°55.869 22.9314 4.766326 30.837664 -0.578993
2005-07-18 08:32:04 51°13.706 2°55.869 22.9325 4.766326 30.837664 -0.612702
2005-07-18 08:32:09 51°13.706 2°55.869 22.9334 4.766431 30.838428 -0.612702
2005-07-18 08:32:14 51°13.706 2°55.869 22.9336 4.76622 30.837346 -0.578993
2005-07-18 08:32:19 51°13.706 2°55.868 22.9348 4.766326 30.83811 -0.578993
2005-07-18 08:32:24 51°13.706 2°55.868 22.9354 4.766326 30.83811 -0.578993
2005-07-18 08:32:29 51°13.706 2°55.868 22.9351 4.76622 30.837792 -0.612702
2005-07-18 08:32:34 51°13.706 2°55.868 22.937 4.76622 30.838237 -0.578993
2005-07-18 08:32:39 51°13.706 2°55.868 22.936 4.76622 30.838237 -0.578993
2005-07-18 08:32:44 51°13.706 2°55.868 22.9357 4.76622 30.838237 -0.578993
2005-07-18 08:32:49 51°13.706 2°55.868 22.9359 4.76622 30.838237 -0.612702
2005-07-18 08:32:54 51°13.706 2°55.868 22.9374 4.76622 30.838237 -0.612702
2005-07-18 08:32:59 51°13.706 2°55.868 22.9378 4.766115 30.837919 -0.545283
2005-07-18 08:33:04 51°13.706 2°55.868 22.9399 4.766115 30.838365 -0.578993
2005-07-18 08:33:09 51°13.706 2°55.868 22.9381 4.766009 30.837155 -0.612702
2005-07-18 08:33:14 51°13.706 2°55.868 22.9382 4.766009 30.838046 -0.545283
2005-07-18 08:33:19 51°13.706 2°55.868 22.937 4.766115 30.839256 -0.578993
2005-07-18 08:33:24 51°13.706 2°55.868 22.937 4.766115 30.839256 -0.578993
2005-07-18 08:33:29 51°13.706 2°55.868 22.9384 4.766009 30.838492 -0.578993
2005-07-18 08:33:33 51°13.706 2°55.868 22.9396 4.765798 30.83741 -0.612702
2005-07-18 08:33:39 51°13.706 2°55.868 22.9408 4.765904 30.837728 -0.578993
2005-07-18 08:33:44 51°13.706 2°55.868 22.9415 4.765904 30.838619 -0.578993
2005-07-18 08:33:49 51°13.706 2°55.868 22.9422 4.765904 30.838619 -0.612702
2005-07-18 08:33:53 51°13.707 2°55.868 22.9425 4.765904 30.838619 -0.612702
2005-07-18 08:33:59 51°13.707 2°55.868 22.9424 4.765798 30.838301 -0.545283
2005-07-18 08:34:04 51°13.707 2°55.868 22.9429 4.765798 30.838301 -0.578993
2005-07-18 08:34:09 51°13.706 2°55.868 22.9437 4.765798 30.838301 -0.578993
2005-07-18 08:34:14 51°13.706 2°55.868 22.9428 4.765798 30.838747 -0.578993
2005-07-18 08:34:19 51°13.706 2°55.868 22.9411 4.765693 30.837537 -0.578993
2005-07-18 08:34:24 51°13.706 2°55.868 22.9421 4.765693 30.837537 -0.578993
2005-07-18 08:34:29 51°13.706 2°55.868 22.9413 4.765693 30.838428 -0.578993
2005-07-18 08:34:34 51°13.706 2°55.868 22.9427 4.765693 30.838874 -0.612702
2005-07-18 08:34:39 51°13.706 2°55.868 22.9433 4.765693 30.838874 -0.578993
2005-07-18 08:34:44 51°13.706 2°55.868 22.9445 4.765587 30.83811 -0.578993
2005-07-18 08:34:49 51°13.706 2°55.868 22.9452 4.765587 30.838556 -0.612702
2005-07-18 08:34:54 51°13.706 2°55.868 22.9458 4.765587 30.838556 -0.612702
2005-07-18 08:34:59 51°13.706 2°55.868 22.9453 4.765376 30.837474 -0.612702
2005-07-18 08:35:04 51°13.706 2°55.868 22.9464 4.765482 30.838238 -0.578993
2005-07-18 08:35:09 51°13.706 2°55.868 22.9439 4.765482 30.838683 -0.578993
2005-07-18 08:35:14 51°13.706 2°55.868 22.9438 4.765376 30.838365 -0.612702
2005-07-18 08:35:19 51°13.706 2°55.868 22.9443 4.765376 30.838365 -0.578993
2005-07-18 08:35:24 51°13.706 2°55.868 22.9441 4.765376 30.838365 -0.578993
2005-07-18 08:35:29 51°13.706 2°55.868 22.9446 4.765376 30.838365 -0.578993
2005-07-18 08:35:34 51°13.706 2°55.868 22.9449 4.765271 30.837601 -0.578993
2005-07-18 08:35:39 51°13.706 2°55.869 22.9456 4.765271 30.838047 -0.612702
2005-07-18 08:35:44 51°13.706 2°55.869 22.9459 4.765376 30.838811 -0.578993
2005-07-18 08:35:49 51°13.706 2°55.868 22.9467 4.765271 30.838938 -0.612702
2005-07-18 08:35:53 51°13.705 2°55.868 22.9459 4.765271 30.838938 -0.612702
2005-07-18 08:35:59 51°13.705 2°55.868 22.945 4.765271 30.838938 -0.578993
2005-07-18 08:36:04 51°13.705 2°55.868 22.9471 4.765165 30.83862 -0.612702
2005-07-18 08:36:09 51°13.705 2°55.868 22.9476 4.765165 30.838174 -0.612702
2005-07-18 08:36:14 51°13.705 2°55.868 22.948 4.765271 30.839829 -0.578993
2005-07-18 08:36:19 51°13.706 2°55.869 22.9486 4.76506 30.838747 -0.612702
2005-07-18 08:36:24 51°13.705 2°55.868 22.9478 4.76506 30.838747 -0.612702
2005-07-18 08:36:29 51°13.705 2°55.869 22.948 4.765166 30.839957 -0.612702
2005-07-18 08:36:33 51°13.705 2°55.868 22.9466 4.76506 30.838302 -0.578993
2005-07-18 08:36:39 51°13.705 2°55.868 22.9467 4.765165 30.839511 -0.545283
2005-07-18 08:36:44 51°13.705 2°55.868 22.9476 4.76506 30.839193 -0.578993
2005-07-18 08:36:49 51°13.705 2°55.868 22.9498 4.764955 30.838875 -0.612702
2005-07-18 08:36:54 51°13.705 2°55.868 22.9505 4.764955 30.838875 -0.612702
2005-07-18 08:36:59 51°13.705 2°55.869 22.9514 4.764955 30.838875 -0.578993
2005-07-18 08:37:04 51°13.705 2°55.869 22.9516 4.764955 30.838875 -0.612702
2005-07-18 08:37:09 51°13.705 2°55.869 22.9518 4.764849 30.839002 -0.578993
2005-07-18 08:37:13 51°13.705 2°55.869 22.9518 4.764955 30.83932 -0.578993
2005-07-18 08:37:19 51°13.705 2°55.869 22.9518 4.764849 30.839002 -0.578993
2005-07-18 08:37:24 51°13.705 2°55.869 22.953 4.764849 30.839002 -0.578993
2005-07-18 08:37:29 51°13.705 2°55.869 22.954 4.764849 30.839448 -0.578993
2005-07-18 08:37:34 51°13.705 2°55.869 22.9548 4.764849 30.839448 -0.612702
2005-07-18 08:37:39 51°13.705 2°55.869 22.9551 4.764849 30.839894 -0.578993
2005-07-18 08:37:44 51°13.705 2°55.869 22.954 4.764849 30.839448 -0.612702
2005-07-18 08:37:49 51°13.706 2°55.869 22.9549 4.764744 30.83913 -0.612702
2005-07-18 08:37:54 51°13.706 2°55.869 22.9536 4.764744 30.83913 -0.612702
2005-07-18 08:37:59 51°13.706 2°55.869 22.9546 4.764744 30.839576 -0.578993
2005-07-18 08:38:04 51°13.706 2°55.869 22.9554 4.764638 30.838812 -0.578993
2005-07-18 08:38:09 51°13.706 2°55.869 22.9556 4.764638 30.839257 -0.578993
2005-07-18 08:38:13 51°13.706 2°55.869 22.9559 4.764744 30.840467 -0.578993
2005-07-18 08:38:19 51°13.706 2°55.87 22.9555 4.764638 30.839703 -0.578993
2005-07-18 08:38:24 51°13.706 2°55.869 22.9561 4.764638 30.839703 -0.578993
2005-07-18 08:38:29 51°13.706 2°55.869 22.9566 4.764533 30.839385 -0.578993
2005-07-18 08:38:33 51°13.706 2°55.869 22.9566 4.764533 30.839385 -0.612702
2005-07-18 08:38:39 51°13.706 2°55.869 22.9575 4.764533 30.839831 -0.578993
2005-07-18 08:38:44 51°13.706 2°55.869 22.9581 4.764427 30.839067 -0.578993
2005-07-18 08:38:49 51°13.706 2°55.869 22.9585 4.764427 30.839512 -0.578993
2005-07-18 08:38:54 51°13.706 2°55.869 22.958 4.764427 30.839512 -0.578993
2005-07-18 08:38:59 51°13.706 2°55.869 22.9576 4.764427 30.839958 -0.612702
2005-07-18 08:39:04 51°13.706 2°55.869 22.957 4.764427 30.839067 -0.578993
2005-07-18 08:39:09 51°13.706 2°55.869 22.9568 4.764427 30.839958 -0.612702
2005-07-18 08:39:14 51°13.706 2°55.869 22.9571 4.764427 30.840404 -0.612702
2005-07-18 08:39:19 51°13.706 2°55.869 22.9576 4.764322 30.83964 -0.612702
2005-07-18 08:39:24 51°13.706 2°55.869 22.9577 4.764322 30.83964 -0.612702
2005-07-18 08:39:29 51°13.706 2°55.869 22.9573 4.764427 30.84085 -0.578993
2005-07-18 08:39:33 51°13.706 2°55.869 22.9562 4.764322 30.840532 -0.578993
2005-07-18 08:39:39 51°13.706 2°55.869 22.9569 4.764322 30.840086 -0.612702
2005-07-18 08:39:44 51°13.706 2°55.869 22.9579 4.764216 30.839768 -0.578993
2005-07-18 08:39:49 51°13.707 2°55.87 22.9581 4.764322 30.840977 -0.578993
2005-07-18 08:39:54 51°13.707 2°55.87 22.9585 4.764322 30.840977 -0.578993
2005-07-18 08:39:59 51°13.707 2°55.87 22.9594 4.764216 30.840213 -0.612702
2005-07-18 08:40:04 51°13.707 2°55.87 22.9599 4.764216 30.840659 -0.612702
2005-07-18 08:40:09 51°13.707 2°55.87 22.961 4.764216 30.840659 -0.578993
2005-07-18 08:40:13 51°13.707 2°55.87 22.9607 4.764216 30.841105 -0.578993
2005-07-18 08:40:19 51°13.707 2°55.869 22.9601 4.764005 30.840023 -0.612702
2005-07-18 08:40:24 51°13.706 2°55.869 22.9606 4.764005 30.840023 -0.612702
2005-07-18 08:40:29 51°13.706 2°55.869 22.9608 4.764005 30.839577 -0.578993
2005-07-18 08:40:33 51°13.706 2°55.869 22.9604 4.764005 30.840023 -0.578993
2005-07-18 08:40:39 51°13.706 2°55.869 22.9595 4.764005 30.840023 -0.578993
2005-07-18 08:40:44 51°13.706 2°55.869 22.9597 4.7639 30.839705 -0.578993
2005-07-18 08:40:49 51°13.706 2°55.869 22.9613 4.764005 30.840469 -0.612702
2005-07-18 08:40:54 51°13.706 2°55.87 22.9624 4.764005 30.840469 -0.612702
2005-07-18 08:40:59 51°13.706 2°55.87 22.9622 4.764005 30.840914 -0.578993
2005-07-18 08:41:04 51°13.706 2°55.87 22.9627 4.764005 30.840914 -0.578993
2005-07-18 08:41:09 51°13.706 2°55.871 22.9626 4.7639 30.840596 -0.578993
2005-07-18 08:41:14 51°13.706 2°55.871 22.9637 4.763794 30.840278 -0.578993
2005-07-18 08:41:19 51°13.706 2°55.871 22.9644 4.7639 30.841042 -0.578993
2005-07-18 08:41:24 51°13.706 2°55.871 22.9645 4.7639 30.841042 -0.578993
2005-07-18 08:41:29 51°13.706 2°55.871 22.9645 4.763794 30.840278 -0.612702
2005-07-18 08:41:34 51°13.706 2°55.871 22.9645 4.763689 30.83996 -0.578993
2005-07-18 08:41:39 51°13.706 2°55.871 22.9633 4.763794 30.84117 -0.578993
2005-07-18 08:41:44 51°13.706 2°55.871 22.9642 4.763583 30.839642 -0.578993
2005-07-18 08:41:49 51°13.706 2°55.871 22.966 4.763689 30.840852 -0.578993
2005-07-18 08:41:53 51°13.706 2°55.871 22.9659 4.763689 30.840852 -0.578993
2005-07-18 08:41:59 51°13.706 2°55.871 22.966 4.763583 30.840088 -0.578993
2005-07-18 08:42:04 51°13.706 2°55.871 22.9654 4.763583 30.840088 -0.578993
2005-07-18 08:42:09 51°13.706 2°55.871 22.966 4.763583 30.840533 -0.545283
2005-07-18 08:42:14 51°13.706 2°55.871 22.9661 4.763583 30.840979 -0.612702
2005-07-18 08:42:19 51°13.706 2°55.871 22.9664 4.763583 30.841425 -0.578993
2005-07-18 08:42:24 51°13.706 2°55.871 22.9671 4.763583 30.841425 -0.578993
2005-07-18 08:42:29 51°13.706 2°55.871 22.9663 4.763478 30.840215 -0.578993
2005-07-18 08:42:33 51°13.706 2°55.871 22.9669 4.763478 30.841107 -0.578993
2005-07-18 08:42:39 51°13.706 2°55.871 22.9662 4.763478 30.841107 -0.612702
2005-07-18 08:42:44 51°13.706 2°55.871 22.9663 4.763372 30.840343 -0.578993
2005-07-18 08:42:49 51°13.706 2°55.87 22.9674 4.763372 30.840789 -0.578993
2005-07-18 08:42:53 51°13.706 2°55.87 22.9679 4.763372 30.840789 -0.578993
2005-07-18 08:42:59 51°13.706 2°55.87 22.9678 4.763372 30.841235 -0.612702
2005-07-18 08:43:04 51°13.705 2°55.87 22.9683 4.763267 30.840471 -0.578993
2005-07-18 08:43:09 51°13.705 2°55.87 22.967 4.763372 30.841235 -0.578993
2005-07-18 08:43:14 51°13.706 2°55.87 22.9677 4.763372 30.841235 -0.578993
2005-07-18 08:43:19 51°13.706 2°55.87 22.9669 4.763267 30.840917 -0.578993
2005-07-18 08:43:24 51°13.707 2°55.87 22.9664 4.763267 30.840917 -0.578993
2005-07-18 08:43:29 51°13.707 2°55.87 22.9682 4.763267 30.841362 -0.578993
2005-07-18 08:43:33 51°13.708 2°55.87 22.968 4.763161 30.840598 -0.578993
2005-07-18 08:43:39 51°13.708 2°55.87 22.9695 4.763161 30.841044 -0.612702
2005-07-18 08:43:44 51°13.708 2°55.87 22.9694 4.763267 30.841808 -0.545283
2005-07-18 08:43:49 51°13.707 2°55.869 22.9702 4.763056 30.840726 -0.578993
2005-07-18 08:43:54 51°13.707 2°55.869 22.9709 4.763056 30.840726 -0.578993
2005-07-18 08:43:59 51°13.707 2°55.869 22.9705 4.763162 30.841936 -0.578993
2005-07-18 08:44:04 51°13.707 2°55.869 22.9695 4.763056 30.841172 -0.612702
2005-07-18 08:44:09 51°13.707 2°55.869 22.9696 4.763162 30.841936 -0.612702
2005-07-18 08:44:14 51°13.707 2°55.869 22.9695 4.762845 30.839644 -0.578993
2005-07-18 08:44:19 51°13.707 2°55.869 22.9697 4.763056 30.841172 -0.578993
2005-07-18 08:44:24 51°13.707 2°55.869 22.9697 4.763056 30.841172 -0.578993
2005-07-18 08:44:29 51°13.707 2°55.869 22.9668 4.763056 30.842064 -0.578993
2005-07-18 08:44:34 51°13.707 2°55.869 22.968 4.762951 30.841746 -0.578993
2005-07-18 08:44:39 51°13.707 2°55.869 22.9684 4.762951 30.841746 -0.578993
2005-07-18 08:44:44 51°13.707 2°55.869 22.9713 4.76274 30.840217 -0.578993
2005-07-18 08:44:49 51°13.707 2°55.869 22.9734 4.762845 30.841428 -0.578993
2005-07-18 08:44:53 51°13.707 2°55.869 22.9735 4.762845 30.841428 -0.578993
2005-07-18 08:44:59 51°13.707 2°55.869 22.974 4.762845 30.841428 -0.612702
2005-07-18 08:45:04 51°13.707 2°55.869 22.9751 4.762845 30.84232 -0.545283
2005-07-18 08:45:09 51°13.707 2°55.869 22.9738 4.76274 30.841109 -0.578993
2005-07-18 08:45:13 51°13.707 2°55.869 22.9751 4.76274 30.841109 -0.578993
2005-07-18 08:45:19 51°13.707 2°55.869 22.976 4.76274 30.841555 -0.612702
2005-07-18 08:45:24 51°13.706 2°55.869 22.976 4.76274 30.841555 -0.612702
2005-07-18 08:45:29 51°13.706 2°55.869 22.9762 4.76274 30.841555 -0.578993
2005-07-18 08:45:33 51°13.706 2°55.869 22.976 4.76274 30.842001 -0.578993
2005-07-18 08:45:39 51°13.706 2°55.869 22.9773 4.762634 30.841683 -0.578993
2005-07-18 08:45:44 51°13.706 2°55.869 22.9782 4.762529 30.840919 -0.612702
2005-07-18 08:45:49 51°13.706 2°55.869 22.979 4.762634 30.842575 -0.578993
2005-07-18 08:45:54 51°13.706 2°55.869 22.979 4.762634 30.842575 -0.578993
2005-07-18 08:45:59 51°13.707 2°55.869 22.9783 4.762423 30.841047 -0.578993
2005-07-18 08:46:04 51°13.707 2°55.869 22.9788 4.762529 30.841811 -0.578993
2005-07-18 08:46:09 51°13.707 2°55.869 22.9779 4.762529 30.841811 -0.578993
2005-07-18 08:46:14 51°13.708 2°55.868 22.9779 4.762529 30.842257 -0.578993
2005-07-18 08:46:19 51°13.708 2°55.868 22.9785 4.762423 30.841939 -0.612702
2005-07-18 08:46:24 51°13.708 2°55.868 22.9783 4.762423 30.841939 -0.612702
2005-07-18 08:46:29 51°13.708 2°55.869 22.978 4.762529 30.842703 -0.578993
2005-07-18 08:46:34 51°13.707 2°55.868 22.9793 4.762423 30.841939 -0.578993
2005-07-18 08:46:39 51°13.707 2°55.868 22.9777 4.762423 30.842385 -0.578993
2005-07-18 08:46:44 51°13.707 2°55.868 22.9778 4.762318 30.842513 -0.578993
2005-07-18 08:46:49 51°13.707 2°55.868 22.9784 4.762212 30.841302 -0.612702
2005-07-18 08:46:53 51°13.707 2°55.869 22.9788 4.762212 30.841302 -0.612702
2005-07-18 08:46:59 51°13.709 2°55.869 22.9798 4.762318 30.842513 -0.578993
2005-07-18 08:47:04 51°13.709 2°55.869 22.9805 4.762212 30.841749 -0.578993
2005-07-18 08:47:09 51°13.708 2°55.869 22.9806 4.762212 30.841749 -0.612702
2005-07-18 08:47:13 51°13.707 2°55.869 22.9808 4.762212 30.842195 -0.612702
2005-07-18 08:47:19 51°13.707 2°55.869 22.9819 4.762212 30.842641 -0.578993
2005-07-18 08:47:24 51°13.708 2°55.869 22.9818 4.762212 30.842641 -0.578993
2005-07-18 08:47:29 51°13.708 2°55.869 22.9807 4.762107 30.841876 -0.578993
2005-07-18 08:47:34 51°13.709 2°55.869 22.9806 4.762001 30.841558 -0.612702
2005-07-18 08:47:39 51°13.709 2°55.869 22.9814 4.762107 30.842769 -0.578993
2005-07-18 08:47:44 51°13.709 2°55.869 22.9814 4.762107 30.842323 -0.612702
2005-07-18 08:47:49 51°13.709 2°55.87 22.9824 4.762107 30.842769 -0.578993
2005-07-18 08:47:53 51°13.71 2°55.87 22.9832 4.762107 30.842769 -0.578993
2005-07-18 08:47:59 51°13.71 2°55.87 22.9832 4.761896 30.841686 -0.612702
2005-07-18 08:48:04 51°13.71 2°55.87 22.9838 4.761896 30.841686 -0.612702
2005-07-18 08:48:09 51°13.711 2°55.87 22.9837 4.761896 30.842132 -0.545283
2005-07-18 08:48:14 51°13.711 2°55.87 22.9841 4.761896 30.842132 -0.578993
2005-07-18 08:48:19 51°13.71 2°55.87 22.9845 4.762001 30.843343 -0.578993
2005-07-18 08:48:24 51°13.71 2°55.87 22.9843 4.762001 30.843343 -0.578993
2005-07-18 08:48:29 51°13.71 2°55.87 22.9822 4.76179 30.84226 -0.578993
2005-07-18 08:48:34 51°13.708 2°55.869 22.9826 4.76179 30.84226 -0.612702
2005-07-18 08:48:39 51°13.707 2°55.869 22.9828 4.76179 30.842706 -0.612702
2005-07-18 08:48:44 51°13.707 2°55.869 22.9835 4.76179 30.842706 -0.612702
2005-07-18 08:48:49 51°13.707 2°55.869 22.9838 4.761685 30.842388 -0.578993
2005-07-18 08:48:53 51°13.707 2°55.869 22.9845 4.761685 30.842388 -0.578993
2005-07-18 08:48:59 51°13.707 2°55.869 22.9837 4.76179 30.842706 -0.578993
2005-07-18 08:49:04 51°13.707 2°55.869 22.984 4.761579 30.841624 -0.578993
2005-07-18 08:49:09 51°13.707 2°55.869 22.9846 4.761685 30.842834 -0.578993
2005-07-18 08:49:13 51°13.707 2°55.869 22.9841 4.761579 30.84207 -0.545283
2005-07-18 08:49:19 51°13.707 2°55.869 22.985 4.761579 30.84207 -0.578993
2005-07-18 08:49:24 51°13.707 2°55.869 22.985 4.761579 30.84207 -0.578993
2005-07-18 08:49:29 51°13.707 2°55.869 22.9859 4.761579 30.842516 -0.578993
2005-07-18 08:49:33 51°13.707 2°55.869 22.9859 4.761474 30.842198 -0.612702
2005-07-18 08:49:39 51°13.707 2°55.869 22.9862 4.761579 30.842962 -0.578993
2005-07-18 08:49:44 51°13.707 2°55.869 22.988 4.761474 30.842644 -0.578993
2005-07-18 08:49:49 51°13.707 2°55.869 22.9886 4.761474 30.842644 -0.578993
2005-07-18 08:49:53 51°13.707 2°55.869 22.9896 4.761474 30.842644 -0.578993
2005-07-18 08:49:59 51°13.707 2°55.869 22.9898 4.761368 30.842772 -0.578993
2005-07-18 08:50:04 51°13.707 2°55.869 22.9901 4.761368 30.842326 -0.612702
2005-07-18 08:50:09 51°13.707 2°55.869 22.9912 4.761474 30.843537 -0.612702
2005-07-18 08:50:14 51°13.706 2°55.869 22.9914 4.761368 30.842772 -0.578993
2005-07-18 08:50:19 51°13.707 2°55.87 22.9906 4.761263 30.842454 -0.578993
2005-07-18 08:50:24 51°13.707 2°55.87 22.9919 4.761263 30.842454 -0.578993
2005-07-18 08:50:29 51°13.708 2°55.87 22.9903 4.761263 30.842454 -0.578993
2005-07-18 08:50:34 51°13.708 2°55.87 22.9909 4.761263 30.8429 -0.578993
2005-07-18 08:50:39 51°13.708 2°55.87 22.9919 4.761263 30.8429 -0.612702
2005-07-18 08:50:44 51°13.709 2°55.87 22.992 4.761157 30.842582 -0.578993
2005-07-18 08:50:49 51°13.709 2°55.87 22.9927 4.761263 30.843793 -0.578993
2005-07-18 08:50:53 51°13.709 2°55.87 22.9933 4.761157 30.842582 -0.578993
2005-07-18 08:51:01 51°13.709 2°55.87 22.9941 4.761157 30.842582 -0.578993
2005-07-18 08:51:05 51°13.709 2°55.87 22.995 4.761253 30.40342 -0.612702
2005-07-18 08:51:10 51°13.709 2°55.87 22.9953 4.761157 30.843474 -0.578993
2005-07-18 08:51:15 51°13.709 2°55.87 22.9951 4.760947 30.842392 -0.578993
2005-07-18 08:51:20 51°13.709 2°55.87 22.9944 4.760947 30.842392 -0.578993
2005-07-18 08:51:24 51°13.708 2°55.87 22.9958 4.760947 30.842392 -0.578993
2005-07-18 08:51:29 51°13.708 2°55.87 22.9957 4.761052 30.843603 -0.578993
2005-07-18 08:51:33 51°13.708 2°55.869 22.9967 4.760947 30.842838 -0.578993
2005-07-18 08:51:39 51°13.707 2°55.869 22.9951 4.761052 30.844049 -0.578993
2005-07-18 08:51:44 51°13.707 2°55.869 22.9958 4.760841 30.84252 -0.578993
2005-07-18 08:51:49 51°13.706 2°55.869 22.9953 4.760841 30.843412 -0.612702
2005-07-18 08:51:53 51°13.706 2°55.869 22.9951 4.760841 30.843412 -0.612702
2005-07-18 08:51:59 51°13.706 2°55.869 22.9958 4.760947 30.843731 -0.578993
2005-07-18 08:52:04 51°13.706 2°55.869 22.9951 4.760947 30.844177 -0.545283
2005-07-18 08:52:09 51°13.706 2°55.869 22.9956 4.760841 30.843412 -0.578993
2005-07-18 08:52:13 51°13.706 2°55.869 22.9953 4.760736 30.843094 -0.578993
2005-07-18 08:52:19 51°13.706 2°55.869 22.9969 4.760841 30.843859 -0.578993
2005-07-18 08:52:24 51°13.706 2°55.869 22.9972 4.760841 30.843859 -0.578993
2005-07-18 08:52:29 51°13.706 2°55.869 22.9979 4.760736 30.843094 -0.612702
2005-07-18 08:52:33 51°13.706 2°55.869 22.9989 4.760525 30.841565 -0.612702
2005-07-18 08:52:39 51°13.706 2°55.869 22.999 4.76063 30.843222 -0.612702
2005-07-18 08:52:44 51°13.706 2°55.869 22.9987 4.76063 30.843222 -0.545283
2005-07-18 08:52:49 51°13.706 2°55.869 22.9989 4.76063 30.843669 -0.578993
2005-07-18 08:52:54 51°13.706 2°55.869 22.9991 4.76063 30.843669 -0.578993
2005-07-18 08:52:59 51°13.706 2°55.869 22.9991 4.76063 30.843669 -0.578993
2005-07-18 08:53:04 51°13.706 2°55.869 22.9992 4.760525 30.842904 -0.578993
2005-07-18 08:53:08 51°13.706 2°55.87 22.9986 4.760525 30.84335 -0.578993
2005-07-18 08:53:13 51°13.706 2°55.87 22.9993 4.760525 30.843797 -0.578993
2005-07-18 08:53:17 51°13.706 2°55.87 23.0005 4.760525 30.843797 -0.612702
2005-07-18 08:53:22 51°13.706 2°55.87 23.0009 4.760525 30.843797 -0.612702
2005-07-18 08:53:27 51°13.706 2°55.87 23.0009 4.760419 30.843032 -0.578993
2005-07-18 08:53:31 51°13.706 2°55.87 23.0011 4.760419 30.843479 -0.612702
2005-07-18 08:53:37 51°13.707 2°55.871 23.0001 4.760419 30.843479 -0.578993
2005-07-18 08:53:42 51°13.707 2°55.871 22.9996 4.760419 30.843925 -0.612702
2005-07-18 08:53:47 51°13.707 2°55.871 23.0011 4.760314 30.843607 -0.578993
2005-07-18 08:53:51 51°13.707 2°55.871 22.9999 4.760314 30.843607 -0.578993
2005-07-18 08:53:57 51°13.706 2°55.87 22.9992 4.760314 30.843607 -0.578993
2005-07-18 08:54:02 51°13.706 2°55.87 22.9993 4.760314 30.844053 -0.578993
2005-07-18 08:54:07 51°13.706 2°55.87 22.9987 4.760208 30.843288 -0.578993
2005-07-18 08:54:11 51°13.706 2°55.87 22.9985 4.760103 30.84297 -0.578993
2005-07-18 08:54:18 51°13.706 2°55.87 23.0005 4.760103 30.843417 -0.612702
2005-07-18 08:54:21 51°13.706 2°55.87 23.0005 4.760103 30.843417 -0.612702
2005-07-18 08:54:27 51°13.706 2°55.871 23.001 4.760208 30.844181 -0.578993
2005-07-18 08:54:32 51°13.707 2°55.871 23.0024 4.760103 30.843417 -0.612702
2005-07-18 08:54:37 51°13.707 2°55.871 23.0035 4.760103 30.843863 -0.612702
2005-07-18 08:54:43 51°13.707 2°55.871 23.0038 4.760208 30.845074 -0.612702
2005-07-18 08:54:47 51°13.707 2°55.871 23.0041 4.759997 30.843545 -0.612702
2005-07-18 08:54:52 51°13.707 2°55.87 23.0036 4.759997 30.843545 -0.612702
2005-07-18 08:54:57 51°13.707 2°55.871 23.0042 4.759997 30.843991 -0.612702
2005-07-18 08:55:03 51°13.707 2°55.871 23.0037 4.759997 30.843991 -0.545283
2005-07-18 08:55:07 51°13.707 2°55.871 23.004 4.759892 30.843673 -0.578993
2005-07-18 08:55:11 51°13.707 2°55.871 23.004 4.759997 30.843991 -0.578993
2005-07-18 08:55:16 51°13.708 2°55.871 23.0046 4.759786 30.843355 -0.612702
2005-07-18 08:55:21 51°13.708 2°55.871 23.0056 4.759786 30.843355 -0.612702
2005-07-18 08:55:27 51°13.708 2°55.871 23.006 4.759892 30.844119 -0.578993
2005-07-18 08:55:32 51°13.708 2°55.871 23.007 4.759681 30.84259 -0.578993
2005-07-18 08:55:37 51°13.708 2°55.871 23.008 4.759786 30.843801 -0.612702
2005-07-18 08:55:42 51°13.708 2°55.87 23.0092 4.759786 30.844248 -0.578993
2005-07-18 08:55:47 51°13.708 2°55.87 23.0092 4.759786 30.844248 -0.578993
2005-07-18 08:55:52 51°13.708 2°55.87 23.0103 4.759786 30.844248 -0.578993
2005-07-18 08:55:57 51°13.708 2°55.87 23.0097 4.759681 30.843929 -0.612702
2005-07-18 08:56:03 51°13.708 2°55.87 23.0092 4.759681 30.843929 -0.578993
2005-07-18 08:56:07 51°13.708 2°55.87 23.0092 4.759681 30.844376 -0.578993
2005-07-18 08:56:11 51°13.708 2°55.87 23.009 4.759575 30.843611 -0.578993
2005-07-18 08:56:17 51°13.708 2°55.87 23.0086 4.759575 30.844058 -0.612702
2005-07-18 08:56:22 51°13.708 2°55.87 23.0082 4.759575 30.844058 -0.612702
2005-07-18 08:56:27 51°13.708 2°55.87 23.008 4.75947 30.843293 -0.612702
2005-07-18 08:56:32 51°13.709 2°55.87 23.0088 4.759575 30.844504 -0.578993
2005-07-18 08:56:37 51°13.709 2°55.87 23.008 4.759575 30.844504 -0.578993
2005-07-18 08:56:42 51°13.709 2°55.87 23.0091 4.75947 30.844186 -0.612702
2005-07-18 08:56:47 51°13.708 2°55.869 23.0096 4.759364 30.843421 -0.612702
2005-07-18 08:56:52 51°13.708 2°55.869 23.0114 4.759364 30.843421 -0.612702
2005-07-18 08:56:57 51°13.708 2°55.869 23.0125 4.759364 30.843421 -0.578993
2005-07-18 08:57:02 51°13.708 2°55.869 23.0126 4.759364 30.843868 -0.612702
2005-07-18 08:57:07 51°13.709 2°55.87 23.0131 4.759364 30.844314 -0.612702
2005-07-18 08:57:12 51°13.708 2°55.869 23.0125 4.759259 30.843996 -0.578993
2005-07-18 08:57:17 51°13.708 2°55.869 23.0133 4.759364 30.844761 -0.578993
2005-07-18 08:57:22 51°13.708 2°55.869 23.0119 4.759364 30.844761 -0.578993
2005-07-18 08:57:28 51°13.708 2°55.869 23.0125 4.759259 30.843996 -0.612702
2005-07-18 08:57:31 51°13.708 2°55.869 23.0108 4.759259 30.844442 -0.612702
2005-07-18 08:57:37 51°13.708 2°55.869 23.0111 4.759259 30.844889 -0.578993
2005-07-18 08:57:42 51°13.708 2°55.869 23.0103 4.759048 30.843359 -0.578993
2005-07-18 08:57:48 51°13.708 2°55.869 23.0109 4.759153 30.844571 -0.578993
2005-07-18 08:57:52 51°13.707 2°55.869 23.0126 4.759153 30.844571 -0.578993
2005-07-18 08:57:57 51°13.707 2°55.869 23.0121 4.759153 30.845017 -0.612702
2005-07-18 08:58:02 51°13.707 2°55.869 23.0123 4.759048 30.843806 -0.612702
2005-07-18 08:58:07 51°13.707 2°55.869 23.0139 4.759048 30.844252 -0.578993
2005-07-18 08:58:13 51°13.707 2°55.869 23.0131 4.759048 30.844252 -0.612702
2005-07-18 08:58:17 51°13.707 2°55.869 23.0145 4.758943 30.844381 -0.578993
2005-07-18 08:58:22 51°13.707 2°55.869 23.0151 4.758943 30.844381 -0.578993
2005-07-18 08:58:27 51°13.708 2°55.869 23.0164 4.758943 30.844381 -0.578993
2005-07-18 08:58:31 51°13.708 2°55.869 23.0173 4.759048 30.845146 -0.612702
2005-07-18 08:58:38 51°13.708 2°55.869 23.0178 4.758943 30.844827 -0.612702
2005-07-18 08:58:42 51°13.708 2°55.869 23.0189 4.758837 30.844509 -0.612702
2005-07-18 08:58:47 51°13.708 2°55.869 23.0203 4.758732 30.843744 -0.578993
2005-07-18 08:58:52 51°13.708 2°55.869 23.021 4.758732 30.843744 -0.578993
2005-07-18 08:58:57 51°13.708 2°55.869 23.0214 4.758837 30.844509 -0.578993
2005-07-18 08:59:02 51°13.708 2°55.869 23.0222 4.758837 30.844956 -0.578993
2005-07-18 08:59:07 51°13.708 2°55.869 23.0227 4.758732 30.844191 -0.578993
2005-07-18 08:59:12 51°13.708 2°55.869 23.0227 4.758837 30.845849 -0.578993
2005-07-18 08:59:17 51°13.708 2°55.869 23.0225 4.758626 30.844319 -0.578993
2005-07-18 08:59:22 51°13.708 2°55.869 23.0218 4.758626 30.844319 -0.578993
2005-07-18 08:59:27 51°13.708 2°55.869 23.0188 4.758626 30.844319 -0.578993
2005-07-18 08:59:32 51°13.708 2°55.869 23.0199 4.758626 30.844766 -0.612702
2005-07-18 08:59:37 51°13.709 2°55.869 23.0205 4.758732 30.845531 -0.578993
2005-07-18 08:59:43 51°13.709 2°55.869 23.0215 4.758626 30.844766 -0.612702
2005-07-18 08:59:48 51°13.71 2°55.869 23.0226 4.758626 30.845659 -0.612702
2005-07-18 08:59:52 51°13.71 2°55.869 23.023 4.758626 30.845659 -0.612702
2005-07-18 08:59:57 51°13.71 2°55.869 23.0242 4.758521 30.844894 -0.578993
2005-07-18 09:00:02 51°13.71 2°55.869 23.0251 4.758521 30.844894 -0.578993
2005-07-18 09:00:07 51°13.71 2°55.869 23.0259 4.758415 30.844576 -0.578993
2005-07-18 09:00:12 51°13.71 2°55.869 23.0276 4.758521 30.845341 -0.578993
2005-07-18 09:00:17 51°13.709 2°55.869 23.0269 4.758521 30.845788 -0.578993
2005-07-18 09:00:22 51°13.709 2°55.869 23.0269 4.758521 30.845788 -0.578993
2005-07-18 09:00:27 51°13.709 2°55.869 23.0274 4.758415 30.845469 -0.578993
2005-07-18 09:00:32 51°13.709 2°55.869 23.0287 4.758204 30.843939 -0.578993
2005-07-18 09:00:37 51°13.709 2°55.869 23.0284 4.758204 30.843939 -0.612702
2005-07-18 09:00:43 51°13.709 2°55.869 23.0283 4.758204 30.844386 -0.545283
2005-07-18 09:00:47 51°13.709 2°55.869 23.0305 4.758415 30.845916 -0.578993
2005-07-18 09:00:53 51°13.709 2°55.869 23.0304 4.758415 30.845916 -0.578993
2005-07-18 09:00:58 51°13.709 2°55.869 23.0301 4.758204 30.84528 -0.578993
2005-07-18 09:01:02 51°13.709 2°55.869 23.0295 4.75831 30.846045 -0.578993
2005-07-18 09:01:07 51°13.709 2°55.869 23.0275 4.758204 30.845726 -0.545283
2005-07-18 09:01:12 51°13.709 2°55.869 23.0278 4.758099 30.844961 -0.578993
2005-07-18 09:01:18 51°13.709 2°55.869 23.031 4.758099 30.844961 -0.578993
2005-07-18 09:01:22 51°13.709 2°55.869 23.0333 4.758099 30.844961 -0.578993
2005-07-18 09:01:27 51°13.709 2°55.869 23.0355 4.758099 30.845408 -0.578993
2005-07-18 09:01:32 51°13.708 2°55.869 23.0337 4.757993 30.84509 -0.578993
2005-07-18 09:01:37 51°13.708 2°55.869 23.0344 4.757993 30.84509 -0.612702
2005-07-18 09:01:43 51°13.708 2°55.869 23.0358 4.757888 30.844771 -0.612702
2005-07-18 09:01:47 51°13.708 2°55.869 23.0368 4.757888 30.844771 -0.578993
2005-07-18 09:01:52 51°13.708 2°55.869 23.0372 4.757888 30.844771 -0.578993
2005-07-18 09:01:56 51°13.708 2°55.869 23.0371 4.757782 30.844006 -0.578993
2005-07-18 09:02:03 51°13.708 2°55.869 23.0376 4.757888 30.845218 -0.578993
2005-07-18 09:02:07 51°13.708 2°55.869 23.0384 4.757888 30.845665 -0.578993
2005-07-18 09:02:12 51°13.708 2°55.869 23.0388 4.757782 30.845347 -0.578993
2005-07-18 09:02:17 51°13.708 2°55.869 23.0392 4.757782 30.845347 -0.578993
2005-07-18 09:02:23 51°13.708 2°55.869 23.0366 4.757782 30.845347 -0.578993
2005-07-18 09:02:27 51°13.708 2°55.869 23.0352 4.757782 30.845347 -0.578993
2005-07-18 09:02:32 51°13.708 2°55.869 23.0341 4.757677 30.845028 -0.612702
2005-07-18 09:02:37 51°13.708 2°55.869 23.0336 4.757677 30.845028 -0.545283
2005-07-18 09:02:42 51°13.708 2°55.869 23.034 4.757677 30.845028 -0.612702
2005-07-18 09:02:47 51°13.708 2°55.869 23.0346 4.757677 30.845475 -0.612702
2005-07-18 09:02:52 51°13.708 2°55.869 23.034 4.757677 30.845475 -0.612702
2005-07-18 09:02:57 51°13.708 2°55.869 23.0344 4.757677 30.845922 -0.612702
2005-07-18 09:03:03 51°13.708 2°55.869 23.0349 4.757677 30.845922 -0.578993
2005-07-18 09:03:07 51°13.708 2°55.869 23.0393 4.757466 30.844392 -0.578993
2005-07-18 09:03:12 51°13.707 2°55.869 23.0344 4.757677 30.846369 -0.578993
2005-07-18 09:03:17 51°13.707 2°55.869 23.035 4.757571 30.846051 -0.612702
2005-07-18 09:03:22 51°13.707 2°55.869 23.0287 4.757571 30.846051 -0.612702
2005-07-18 09:03:27 51°13.707 2°55.869 23.0287 4.757466 30.845285 -0.578993
2005-07-18 09:03:31 51°13.707 2°55.869 23.0345 4.757466 30.845285 -0.612702
2005-07-18 09:03:37 51°13.707 2°55.869 23.035 4.757466 30.845732 -0.612702
2005-07-18 09:03:43 51°13.707 2°55.869 23.0335 4.757466 30.845732 -0.578993
2005-07-18 09:03:47 51°13.707 2°55.869 23.0284 4.75736 30.845414 -0.578993
2005-07-18 09:03:52 51°13.707 2°55.869 23.0196 4.75736 30.845414 -0.578993
2005-07-18 09:03:57 51°13.707 2°55.869 23.0375 4.757255 30.843755 -0.578993
2005-07-18 09:04:03 51°13.707 2°55.869 23.0417 4.757149 30.84433 -0.612702
2005-07-18 09:04:07 51°13.707 2°55.869 23.0401 4.75736 30.845861 -0.612702
2005-07-18 09:04:11 51°13.707 2°55.869 23.0381 4.757255 30.845542 -0.578993
2005-07-18 09:04:17 51°13.707 2°55.869 23.0398 4.757255 30.845542 -0.578993
2005-07-18 09:04:22 51°13.707 2°55.869 23.0425 4.757255 30.845542 -0.578993
2005-07-18 09:04:27 51°13.707 2°55.869 23.0435 4.757044 30.844906 -0.612702
2005-07-18 09:04:32 51°13.707 2°55.869 23.043 4.757149 30.845671 -0.612702
2005-07-18 09:04:37 51°13.707 2°55.869 23.0413 4.757149 30.845671 -0.578993
2005-07-18 09:04:43 51°13.706 2°55.869 23.0416 4.757044 30.844459 -0.578993
2005-07-18 09:04:47 51°13.706 2°55.869 23.0432 4.757149 30.845224 -0.578993
2005-07-18 09:04:53 51°13.706 2°55.868 23.0445 4.757149 30.845224 -0.578993
2005-07-18 09:04:57 51°13.706 2°55.868 23.0454 4.756938 30.844587 -0.578993
2005-07-18 09:05:03 51°13.706 2°55.868 23.0468 4.757044 30.845353 -0.545283
2005-07-18 09:05:07 51°13.706 2°55.868 23.0463 4.756938 30.844587 -0.578993
2005-07-18 09:05:11 51°13.706 2°55.868 23.0472 4.757044 30.846247 -0.578993
2005-07-18 09:05:16 51°13.706 2°55.868 23.0683 4.756939 30.845034 -0.578993
2005-07-18 09:05:21 51°13.706 2°55.868 23.0569 4.756939 30.845034 -0.578993
2005-07-18 09:05:27 51°13.705 2°55.869 23.0109 4.756939 30.845928 -0.578993
2005-07-18 09:05:32 51°13.705 2°55.869 23.0389 4.756833 30.845163 -0.578993
2005-07-18 09:05:37 51°13.705 2°55.869 23.0488 4.756833 30.845163 -0.578993
2005-07-18 09:05:43 51°13.705 2°55.869 23.0512 4.756833 30.844716 -0.612702
2005-07-18 09:05:47 51°13.705 2°55.869 23.0483 4.756833 30.84561 -0.578993
2005-07-18 09:05:52 51°13.706 2°55.869 23.049 4.756833 30.84561 -0.578993
2005-07-18 09:05:56 51°13.705 2°55.869 23.0481 4.756833 30.84561 -0.578993
2005-07-18 09:06:01 51°13.705 2°55.869 23.0321 4.756833 30.846057 -0.612702
2005-07-18 09:06:07 51°13.705 2°55.869 23.0376 4.756728 30.846185 -0.578993
2005-07-18 09:06:12 51°13.706 2°55.868 23.049 4.756622 30.844526 -0.578993
2005-07-18 09:06:17 51°13.706 2°55.867 23.0481 4.756728 30.845739 -0.578993
2005-07-18 09:06:23 51°13.706 2°55.866 23.0712 4.756728 30.845739 -0.578993
2005-07-18 09:06:27 51°13.707 2°55.865 23.0618 4.756622 30.844973 -0.578993
2005-07-18 09:06:32 51°13.707 2°55.865 23.0737 4.756622 30.84542 -0.578993
2005-07-18 09:06:37 51°13.707 2°55.865 23.0699 4.756517 30.844655 -0.578993
2005-07-18 09:06:43 51°13.707 2°55.865 23.0738 4.756411 30.84389 -0.612702
2005-07-18 09:06:47 51°13.707 2°55.866 23.0707 4.756622 30.845867 -0.578993
2005-07-18 09:06:53 51°13.706 2°55.867 23.0733 4.756622 30.845867 -0.578993
2005-07-18 09:06:58 51°13.706 2°55.869 23.0691 4.756622 30.84542 -0.612702
2005-07-18 09:07:02 51°13.705 2°55.87 23.071 4.756517 30.845549 -0.612702
2005-07-18 09:07:07 51°13.704 2°55.873 23.0662 4.756517 30.845549 -0.578993
2005-07-18 09:07:12 51°13.703 2°55.875 23.0511 4.756517 30.845549 -0.578993
2005-07-18 09:07:18 51°13.701 2°55.878 23.0679 4.756517 30.845549 -0.612702
2005-07-18 09:07:22 51°13.699 2°55.88 23.056 4.756517 30.845549 -0.612702
2005-07-18 09:07:27 51°13.698 2°55.883 23.0852 4.756411 30.845677 -0.578993
2005-07-18 09:07:32 51°13.696 2°55.887 23.071 4.756411 30.845677 -0.578993
2005-07-18 09:07:37 51°13.694 2°55.891 23.0683 4.756411 30.845677 -0.578993
2005-07-18 09:07:43 51°13.691 2°55.896 23.0591 4.756306 30.845359 -0.578993
2005-07-18 09:07:47 51°13.689 2°55.9 23.0648 4.7562 30.844594 -0.612702
2005-07-18 09:07:52 51°13.686 2°55.905 23.0606 4.7562 30.844594 -0.612702
2005-07-18 09:07:58 51°13.683 2°55.911 23.0605 4.756306 30.845359 -0.578993
2005-07-18 09:08:03 51°13.68 2°55.916 23.0548 4.756306 30.845806 -0.578993
2005-07-18 09:08:07 51°13.677 2°55.921 23.0561 4.7562 30.845041 -0.612702
2005-07-18 09:08:11 51°13.674 2°55.925 23.0288 4.7562 30.845041 -0.578993
2005-07-18 09:08:17 51°13.67 2°55.932 23.0402 4.7562 30.845041 -0.578993
2005-07-18 09:08:22 51°13.667 2°55.938 23.0151 4.7562 30.845041 -0.578993
2005-07-18 09:08:27 51°13.663 2°55.943 23.0198 4.7562 30.845488 -0.612702
2005-07-18 09:08:32 51°13.66 2°55.948 23.0243 4.7562 30.845488 -0.578993
2005-07-18 09:08:37 51°13.656 2°55.954 23.0222 4.756095 30.844722 -0.545283
2005-07-18 09:08:42 51°13.652 2°55.959 23.0281 4.756095 30.845169 -0.578993
2005-07-18 09:08:48 51°13.648 2°55.965 23.0367 4.755989 30.845298 -0.612702
2005-07-18 09:08:52 51°13.644 2°55.97 23.0385 4.755989 30.845298 -0.612702
2005-07-18 09:08:57 51°13.641 2°55.974 23.0412 4.756095 30.846063 -0.578993
2005-07-18 09:09:02 51°13.636 2°55.979 23.0463 4.755989 30.845745 -0.578993
2005-07-18 09:09:07 51°13.632 2°55.984 23.0474 4.755989 30.845298 -0.578993
2005-07-18 09:09:11 51°13.629 2°55.988 23.0474 4.756095 30.846511 -0.612702
2005-07-18 09:09:17 51°13.624 2°55.994 23.0481 4.755989 30.845745 -0.612702
2005-07-18 09:09:22 51°13.62 2°55.998 23.0493 4.755989 30.845745 -0.612702
2005-07-18 09:09:27 51°13.616 2°56.003 23.0511 4.755884 30.845427 -0.578993
2005-07-18 09:09:33 51°13.612 2°56.007 23.0518 4.755884 30.845427 -0.578993
2005-07-18 09:09:37 51°13.609 2°56.011 23.0533 4.755884 30.845427 -0.578993
2005-07-18 09:09:42 51°13.604 2°56.016 23.056 4.755884 30.845874 -0.578993
2005-07-18 09:09:47 51°13.601 2°56.021 23.0588 4.755884 30.846321 -0.578993
2005-07-18 09:09:52 51°13.597 2°56.025 23.0595 4.755884 30.846321 -0.578993
2005-07-18 09:09:57 51°13.594 2°56.03 23.0569 4.755884 30.845874 -0.578993
2005-07-18 09:10:02 51°13.59 2°56.035 23.0693 4.755673 30.84479 -0.578993
2005-07-18 09:10:08 51°13.587 2°56.041 23.0702 4.755778 30.845555 -0.578993
2005-07-18 09:10:12 51°13.584 2°56.045 23.0698 4.755884 30.846321 -0.612702
2005-07-18 09:10:17 51°13.581 2°56.05 23.0712 4.755673 30.84479 -0.578993
2005-07-18 09:10:22 51°13.578 2°56.055 23.0709 4.755673 30.84479 -0.578993
2005-07-18 09:10:27 51°13.575 2°56.061 23.0702 4.755673 30.845237 -0.612702
2005-07-18 09:10:32 51°13.573 2°56.067 23.0702 4.755673 30.846131 -0.545283
2005-07-18 09:10:37 51°13.57 2°56.072 23.0701 4.755673 30.845684 -0.578993
2005-07-18 09:10:43 51°13.567 2°56.079 23.0698 4.755673 30.846131 -0.578993
2005-07-18 09:10:47 51°13.565 2°56.084 23.0638 4.755778 30.84645 -0.578993
2005-07-18 09:10:53 51°13.563 2°56.091 23.0538 4.755778 30.84645 -0.578993
2005-07-18 09:10:57 51°13.56 2°56.097 23.0574 4.755567 30.845366 -0.578993
2005-07-18 09:11:03 51°13.558 2°56.103 23.0584 4.755567 30.845366 -0.578993
2005-07-18 09:11:07 51°13.556 2°56.108 23.07 4.755673 30.846131 -0.578993
2005-07-18 09:11:12 51°13.554 2°56.114 23.0743 4.755673 30.846578 -0.578993
2005-07-18 09:11:17 51°13.552 2°56.119 23.1079 4.755462 30.8446 -0.612702
2005-07-18 09:11:21 51°13.551 2°56.124 23.108 4.755462 30.8446 -0.612702
2005-07-18 09:11:27 51°13.549 2°56.133 23.1164 4.755462 30.845942 -0.578993
2005-07-18 09:11:33 51°13.548 2°56.14 23.1192 4.755462 30.845942 -0.612702
2005-07-18 09:11:37 51°13.548 2°56.147 23.1231 4.755356 30.845623 -0.578993
2005-07-18 09:11:42 51°13.547 2°56.154 23.1125 4.755462 30.846836 -0.578993
2005-07-18 09:11:47 51°13.547 2°56.161 23.0808 4.755356 30.84607 -0.612702
2005-07-18 09:11:53 51°13.548 2°56.168 23.0319 4.755356 30.84607 -0.612702
2005-07-18 09:11:57 51°13.548 2°56.173 23.0724 4.755356 30.846518 -0.545283
2005-07-18 09:12:03 51°13.549 2°56.177 23.0681 4.755462 30.847283 -0.578993
2005-07-18 09:12:07 51°13.549 2°56.179 23.08 4.755356 30.846965 -0.578993
2005-07-18 09:12:12 51°13.549 2°56.18 23.0107 4.755251 30.846199 -0.578993
2005-07-18 09:12:18 51°13.549 2°56.181 22.9565 4.755356 30.846518 -0.578993
2005-07-18 09:12:22 51°13.549 2°56.18 23.087 4.755356 30.846518 -0.578993
2005-07-18 09:12:27 51°13.549 2°56.179 23.0878 4.755251 30.845752 -0.578993
2005-07-18 09:12:31 51°13.548 2°56.178 23.0876 4.755145 30.844987 -0.578993
2005-07-18 09:12:37 51°13.548 2°56.178 23.0914 4.755251 30.845752 -0.578993
2005-07-18 09:12:43 51°13.549 2°56.18 23.0941 4.755145 30.844539 -0.578993
2005-07-18 09:12:48 51°13.551 2°56.182 23.0795 4.755145 30.844987 -0.612702
2005-07-18 09:12:53 51°13.552 2°56.184 23.0094 4.755145 30.844987 -0.612702
2005-07-18 09:12:58 51°13.553 2°56.186 23.0598 4.755251 30.846199 -0.612702
2005-07-18 09:13:02 51°13.553 2°56.187 23.0301 4.75504 30.84601 -0.612702
2005-07-18 09:13:07 51°13.553 2°56.186 23.0536 4.755251 30.847988 -0.578993
2005-07-18 09:13:12 51°13.552 2°56.186 23.0509 4.75504 30.846904 -0.612702
2005-07-18 09:13:18 51°13.55 2°56.184 23.0708 4.755145 30.84767 -0.578993
2005-07-18 09:13:23 51°13.548 2°56.183 23.0817 4.755145 30.84767 -0.578993
2005-07-18 09:13:27 51°13.548 2°56.182 23.0965 4.75504 30.846457 -0.612702
2005-07-18 09:13:33 51°13.548 2°56.182 23.0876 4.75504 30.845563 -0.612702
2005-07-18 09:13:38 51°13.549 2°56.183 23.0674 4.75504 30.845115 -0.578993
2005-07-18 09:13:43 51°13.55 2°56.184 22.9855 4.754934 30.84435 -0.578993
2005-07-18 09:13:48 51°13.551 2°56.184 23.0608 4.754829 30.844926 -0.612702
2005-07-18 09:13:53 51°13.551 2°56.184 22.9742 4.754829 30.844926 -0.612702
2005-07-18 09:13:58 51°13.549 2°56.184 23.0545 4.754935 30.846586 -0.578993
2005-07-18 09:14:03 51°13.547 2°56.185 23.0653 4.75504 30.847351 -0.578993
2005-07-18 09:14:08 51°13.544 2°56.185 23.0659 4.754935 30.848375 -0.578993
2005-07-18 09:14:13 51°13.542 2°56.186 23.0696 4.754829 30.847609 -0.612702
2005-07-18 09:14:18 51°13.541 2°56.186 23.0714 4.754829 30.846715 -0.578993
2005-07-18 09:14:23 51°13.54 2°56.187 23.0756 4.754829 30.846715 -0.578993
2005-07-18 09:14:28 51°13.54 2°56.186 23.0823 4.754829 30.84582 -0.578993
2005-07-18 09:14:33 51°13.54 2°56.187 23.0791 4.754724 30.844607 -0.612702
2005-07-18 09:14:38 51°13.542 2°56.186 23.0843 4.754829 30.846267 -0.578993
2005-07-18 09:14:43 51°13.544 2°56.185 23.0895 4.754829 30.846267 -0.578993
2005-07-18 09:14:48 51°13.546 2°56.184 23.0918 4.754618 30.846525 -0.578993
2005-07-18 09:14:53 51°13.548 2°56.182 23.0965 4.754618 30.846525 -0.578993
2005-07-18 09:14:58 51°13.551 2°56.178 23.1091 4.754829 30.848504 -0.612702
2005-07-18 09:15:03 51°13.554 2°56.174 23.1162 4.754618 30.847867 -0.612702
2005-07-18 09:15:07 51°13.557 2°56.168 23.1083 4.754618 30.84742 -0.578993
2005-07-18 09:15:12 51°13.56 2°56.16 23.087 4.754618 30.84742 -0.578993
2005-07-18 09:15:18 51°13.563 2°56.148 23.0737 4.754618 30.847867 -0.578993
2005-07-18 09:15:21 51°13.566 2°56.139 22.9856 4.754618 30.847867 -0.578993
2005-07-18 09:15:27 51°13.57 2°56.124 22.9793 4.754618 30.84742 -0.578993
2005-07-18 09:15:32 51°13.573 2°56.112 23.0102 4.754618 30.846972 -0.578993
2005-07-18 09:15:37 51°13.577 2°56.1 23.0162 4.754513 30.845759 -0.612702
2005-07-18 09:15:41 51°13.581 2°56.088 23.0114 4.754513 30.845759 -0.578993
2005-07-18 09:15:47 51°13.586 2°56.071 23.0077 4.754618 30.84742 -0.612702
2005-07-18 09:15:52 51°13.591 2°56.056 23.0081 4.754618 30.84742 -0.612702
2005-07-18 09:15:57 51°13.596 2°56.043 23.0047 4.754513 30.847101 -0.612702
2005-07-18 09:16:03 51°13.602 2°56.024 23.0107 4.754513 30.847549 -0.578993
2005-07-18 09:16:07 51°13.607 2°56.01 22.9958 4.754407 30.84723 -0.545283
2005-07-18 09:16:12 51°13.613 2°55.996 23.0141 4.754302 30.846912 -0.578993
2005-07-18 09:16:17 51°13.619 2°55.979 22.9937 4.754302 30.847359 -0.578993
2005-07-18 09:16:23 51°13.626 2°55.962 22.9989 4.754302 30.847359 -0.578993
2005-07-18 09:16:27 51°13.632 2°55.947 23.0248 4.754407 30.847678 -0.578993
2005-07-18 09:16:31 51°13.638 2°55.935 23.0054 4.754302 30.848701 -0.578993
2005-07-18 09:16:37 51°13.645 2°55.917 23.006 4.754196 30.84883 -0.578993
2005-07-18 09:16:42 51°13.654 2°55.9 23.0215 4.754302 30.849596 -0.578993
2005-07-18 09:16:47 51°13.661 2°55.884 22.9978 4.754196 30.849725 -0.578993
2005-07-18 09:16:52 51°13.668 2°55.869 23.0297 4.754196 30.849725 -0.578993
2005-07-18 09:16:58 51°13.677 2°55.852 23.0258 4.754302 30.849149 -0.612702
2005-07-18 09:17:03 51°13.684 2°55.837 23.0506 4.754196 30.84883 -0.612702
2005-07-18 09:17:07 51°13.69 2°55.824 23.0435 4.754196 30.84883 -0.578993
2005-07-18 09:17:12 51°13.697 2°55.81 23.0416 4.754196 30.849725 -0.578993
2005-07-18 09:17:17 51°13.703 2°55.797 23.0442 4.753985 30.848193 -0.612702
2005-07-18 09:17:23 51°13.712 2°55.78 23.0476 4.753985 30.848193 -0.612702
2005-07-18 09:17:27 51°13.718 2°55.767 23.0406 4.754091 30.848959 -0.578993
2005-07-18 09:17:32 51°13.724 2°55.755 23.0124 4.754091 30.849407 -0.545283
2005-07-18 09:17:37 51°13.731 2°55.741 22.9693 4.753985 30.848641 -0.612702
2005-07-18 09:17:42 51°13.739 2°55.727 22.9855 4.753985 30.848193 -0.612702
2005-07-18 09:17:47 51°13.746 2°55.715 23.0074 4.753985 30.847746 -0.578993
2005-07-18 09:17:53 51°13.755 2°55.703 23.016 4.753985 30.847746 -0.578993
2005-07-18 09:17:57 51°13.762 2°55.693 23.0328 4.75388 30.847875 -0.545283
2005-07-18 09:18:03 51°13.771 2°55.681 23.0259 4.75388 30.848322 -0.545283
2005-07-18 09:18:07 51°13.779 2°55.673 23.0219 4.753774 30.848452 -0.612702
2005-07-18 09:18:13 51°13.789 2°55.662 23.0212 4.75388 30.849665 -0.578993
2005-07-18 09:18:17 51°13.797 2°55.655 23.0238 4.753774 30.848899 -0.578993
2005-07-18 09:18:22 51°13.807 2°55.647 23.0356 4.753774 30.848899 -0.578993
2005-07-18 09:18:27 51°13.817 2°55.64 23.0374 4.753774 30.848899 -0.578993
2005-07-18 09:18:31 51°13.825 2°55.634 23.0395 4.753774 30.848899 -0.612702
2005-07-18 09:18:37 51°13.837 2°55.626 23.0529 4.753774 30.848899 -0.578993
2005-07-18 09:18:42 51°13.848 2°55.62 23.0568 4.753669 30.848133 -0.578993
2005-07-18 09:18:47 51°13.858 2°55.613 23.0761 4.753563 30.847367 -0.578993
2005-07-18 09:18:51 51°13.867 2°55.608 23.0616 4.753563 30.847367 -0.578993
2005-07-18 09:18:58 51°13.881 2°55.6 23.0703 4.753774 30.849794 -0.612702
2005-07-18 09:19:03 51°13.893 2°55.594 23.0774 4.753563 30.848262 -0.578993
2005-07-18 09:19:07 51°13.903 2°55.589 23.0789 4.753669 30.849476 -0.578993
2005-07-18 09:19:11 51°13.912 2°55.584 23.0691 4.753563 30.84871 -0.578993
2005-07-18 09:19:17 51°13.925 2°55.577 23.0738 4.753563 30.84871 -0.578993
2005-07-18 09:19:23 51°13.939 2°55.568 23.0703 4.753563 30.84871 -0.578993
2005-07-18 09:19:27 51°13.949 2°55.562 23.0685 4.753458 30.848391 -0.612702
2005-07-18 09:19:31 51°13.959 2°55.557 23.0687 4.753563 30.849157 -0.578993
2005-07-18 09:19:37 51°13.971 2°55.55 23.0778 4.753352 30.847625 -0.578993
2005-07-18 09:19:41 51°13.981 2°55.544 23.0757 4.753352 30.847625 -0.578993
2005-07-18 09:19:47 51°13.995 2°55.536 23.0829 4.753352 30.84852 -0.578993
2005-07-18 09:19:53 51°14.008 2°55.528 23.071 4.753352 30.84852 -0.578993
2005-07-18 09:19:57 51°14.017 2°55.522 23.0811 4.753352 30.848073 -0.578993
2005-07-18 09:20:03 51°14.03 2°55.514 23.0737 4.753352 30.848968 -0.578993
2005-07-18 09:20:07 51°14.04 2°55.507 23.0839 4.753247 30.848202 -0.612702
2005-07-18 09:20:11 51°14.049 2°55.502 23.0937 4.753352 30.849415 -0.578993
2005-07-18 09:20:16 51°14.06 2°55.494 23.0943 4.753247 30.849097 -0.578993
2005-07-18 09:20:23 51°14.074 2°55.484 23.1006 4.753247 30.849097 -0.578993
2005-07-18 09:20:28 51°14.086 2°55.476 23.0819 4.753352 30.849415 -0.578993
2005-07-18 09:20:33 51°14.097 2°55.466 23.0601 4.753247 30.848649 -0.578993
2005-07-18 09:20:37 51°14.109 2°55.458 23.0767 4.753247 30.848649 -0.578993
2005-07-18 09:20:42 51°14.121 2°55.449 23.0826 4.753247 30.848649 -0.612702
2005-07-18 09:20:47 51°14.133 2°55.438 23.0789 4.753036 30.847118 -0.612702
2005-07-18 09:20:53 51°14.147 2°55.427 23.0439 4.753036 30.847118 -0.612702
2005-07-18 09:20:57 51°14.157 2°55.418 23.0819 4.753141 30.848779 -0.545283
2005-07-18 09:21:03 51°14.173 2°55.404 23.0702 4.753141 30.848779 -0.578993
2005-07-18 09:21:07 51°14.184 2°55.393 23.091 4.753036 30.848908 -0.578993
2005-07-18 09:21:13 51°14.199 2°55.379 23.0978 4.753141 30.849226 -0.578993
2005-07-18 09:21:17 51°14.21 2°55.367 23.0992 4.753036 30.848908 -0.578993
2005-07-18 09:21:22 51°14.222 2°55.352 23.1089 4.753036 30.848908 -0.578993
2005-07-18 09:21:27 51°14.234 2°55.337 23.0707 4.753036 30.849355 -0.578993
2005-07-18 09:21:32 51°14.245 2°55.323 23.0468 4.753036 30.849803 -0.612702
2005-07-18 09:21:38 51°14.258 2°55.304 23.0388 4.752931 30.849037 -0.578993
2005-07-18 09:21:43 51°14.269 2°55.287 23.0889 4.753036 30.849803 -0.578993
2005-07-18 09:21:47 51°14.278 2°55.272 23.1051 4.752931 30.848589 -0.578993
2005-07-18 09:21:53 51°14.289 2°55.253 23.0474 4.752931 30.848589 -0.578993
2005-07-18 09:21:57 51°14.298 2°55.237 23.0606 4.752825 30.849166 -0.612702
2005-07-18 09:22:03 51°14.308 2°55.217 23.0328 4.753036 30.85025 -0.578993
2005-07-18 09:22:07 51°14.316 2°55.2 23.0349 4.752931 30.85038 -0.612702
2005-07-18 09:22:11 51°14.324 2°55.185 23.0157 4.752931 30.849932 -0.578993
2005-07-18 09:22:17 51°14.334 2°55.163 23.0583 4.752614 30.847187 -0.612702
2005-07-18 09:22:22 51°14.343 2°55.144 23.0125 4.752614 30.847187 -0.612702
2005-07-18 09:22:27 51°14.353 2°55.125 23.0276 4.752825 30.849166 -0.612702
2005-07-18 09:22:31 51°14.36 2°55.11 22.9996 4.752931 30.849484 -0.612702
2005-07-18 09:22:37 51°14.371 2°55.087 23.0271 4.752825 30.849166 -0.578993
2005-07-18 09:22:42 51°14.381 2°55.068 23.0071 4.752614 30.848082 -0.578993
2005-07-18 09:22:47 51°14.391 2°55.05 22.994 4.75272 30.849295 -0.578993
2005-07-18 09:22:52 51°14.402 2°55.032 22.9841 4.75272 30.849295 -0.578993
2005-07-18 09:22:57 51°14.412 2°55.017 22.9142 4.752825 30.850509 -0.612702
2005-07-18 09:23:01 51°14.422 2°55.005 22.9685 4.75272 30.849295 -0.578993
2005-07-18 09:23:07 51°14.44 2°54.989 22.9693 4.752509 30.847763 -0.578993
2005-07-18 09:23:13 51°14.457 2°54.978 23.0037 4.75272 30.848848 -0.612702
2005-07-18 09:23:18 51°14.473 2°54.97 22.9984 4.75272 30.85019 -0.578993
2005-07-18 09:23:22 51°14.487 2°54.965 23.0339 4.75272 30.85019 -0.578993
2005-07-18 09:23:27 51°14.503 2°54.961 23.0403 4.75272 30.850638 -0.612702
2005-07-18 09:23:33 51°14.522 2°54.957 23.0102 4.752403 30.849235 -0.545283
2005-07-18 09:23:37 51°14.537 2°54.954 23.0271 4.752614 30.851215 -0.646411
2005-07-18 09:23:41 51°14.551 2°54.95 23.0261 4.752298 30.848917 -0.578993
2005-07-18 09:23:47 51°14.574 2°54.945 23.0372 4.752403 30.849683 -0.578993
2005-07-18 09:23:52 51°14.591 2°54.942 23.0233 4.752403 30.849683 -0.578993
2005-07-18 09:23:57 51°14.612 2°54.937 23.0278 4.752087 30.847385 -0.578993
2005-07-18 09:24:03 51°14.632 2°54.932 23.0253 4.752509 30.850897 -0.578993
2005-07-18 09:24:07 51°14.649 2°54.928 23.0279 4.752298 30.849364 -0.612702
2005-07-18 09:24:12 51°14.667 2°54.923 23.0224 4.752403 30.850578 -0.612702
2005-07-18 09:24:18 51°14.69 2°54.917 23.0208 4.752298 30.849364 -0.612702
2005-07-18 09:24:22 51°14.707 2°54.912 23.0226 4.752298 30.849364 -0.612702
2005-07-18 09:24:27 51°14.726 2°54.907 22.9774 4.752509 30.851344 -0.578993
2005-07-18 09:24:31 51°14.742 2°54.903 23.0223 4.752403 30.850578 -0.612702
2005-07-18 09:24:37 51°14.763 2°54.897 22.9954 4.752192 30.849494 -0.578993
2005-07-18 09:24:43 51°14.787 2°54.892 23.0276 4.752403 30.851026 -0.578993
2005-07-18 09:24:47 51°14.804 2°54.887 23.0008 4.752403 30.851026 -0.578993
2005-07-18 09:24:51 51°14.819 2°54.883 23.0207 4.752403 30.851026 -0.578993
2005-07-18 09:24:56 51°14.839 2°54.878 23.0139 4.752192 30.849941 -0.612702
2005-07-18 09:25:02 51°14.86 2°54.873 23.0281 4.752298 30.850708 -0.578993
2005-07-18 09:25:07 51°14.881 2°54.867 23.0121 4.752192 30.849941 -0.578993
2005-07-18 09:25:13 51°14.903 2°54.861 23.0173 4.752087 30.849175 -0.578993
2005-07-18 09:25:17 51°14.918 2°54.856 23.0116 4.752192 30.849941 -0.612702
2005-07-18 09:25:21 51°14.934 2°54.851 23.0085 4.752192 30.849941 -0.612702
2005-07-18 09:25:27 51°14.959 2°54.844 23.029 4.752192 30.849941 -0.612702
2005-07-18 09:25:33 51°14.98 2°54.838 22.9967 4.752087 30.850071 -0.612702
2005-07-18 09:25:37 51°14.995 2°54.833 23.0278 4.752192 30.851285 -0.612702
2005-07-18 09:25:42 51°15.015 2°54.827 23.0071 4.752192 30.850837 -0.612702
2005-07-18 09:25:47 51°15.036 2°54.821 23.0057 4.751981 30.849305 -0.578993
2005-07-18 09:25:51 51°15.051 2°54.816 23.0241 4.751981 30.849305 -0.578993
2005-07-18 09:25:56 51°15.071 2°54.811 23.0096 4.752087 30.850518 -0.578993
2005-07-18 09:26:03 51°15.096 2°54.803 23.0253 4.75177 30.84822 -0.612702
2005-07-18 09:26:07 51°15.113 2°54.798 23.0348 4.751876 30.848538 -0.578993
2005-07-18 09:26:12 51°15.132 2°54.791 23.0178 4.752192 30.850837 -0.578993
2005-07-18 09:26:17 51°15.151 2°54.784 23.0105 4.75177 30.848668 -0.578993
2005-07-18 09:26:22 51°15.169 2°54.778 23.005 4.75177 30.848668 -0.578993
2005-07-18 09:26:27 51°15.189 2°54.77 23.0099 4.751981 30.850648 -0.578993
2005-07-18 09:26:33 51°15.211 2°54.763 22.998 4.751876 30.849882 -0.612702
2005-07-18 09:26:37 51°15.228 2°54.757 23.0043 4.751981 30.850648 -0.578993
2005-07-18 09:26:42 51°15.247 2°54.751 23.0082 4.75177 30.849563 -0.578993
2005-07-18 09:26:47 51°15.266 2°54.745 22.9972 4.751876 30.850329 -0.578993
2005-07-18 09:26:53 51°15.288 2°54.738 23.0206 4.751876 30.850329 -0.578993
2005-07-18 09:26:57 51°15.305 2°54.733 23.0188 4.751876 30.850329 -0.612702
2005-07-18 09:27:03 51°15.327 2°54.727 23.0126 4.751665 30.849692 -0.578993
2005-07-18 09:27:07 51°15.344 2°54.721 23.0244 4.751876 30.851673 -0.612702
2005-07-18 09:27:12 51°15.362 2°54.716 23.0227 4.751665 30.85014 -0.578993
2005-07-18 09:27:17 51°15.381 2°54.709 23.0208 4.751665 30.849692 -0.612702
2005-07-18 09:27:23 51°15.404 2°54.702 23.0258 4.751665 30.849692 -0.612702
2005-07-18 09:27:27 51°15.421 2°54.696 23.0233 4.751665 30.85014 -0.612702
2005-07-18 09:27:32 51°15.441 2°54.688 23.0171 4.751665 30.850588 -0.578993
2005-07-18 09:27:37 51°15.458 2°54.682 22.9982 4.751876 30.85212 -0.578993
2005-07-18 09:27:42 51°15.479 2°54.674 23.0229 4.751559 30.85027 -0.612702
2005-07-18 09:27:48 51°15.5 2°54.666 23.0319 4.75177 30.851354 -0.612702
2005-07-18 09:27:53 51°15.519 2°54.659 23.0228 4.75177 30.851354 -0.612702
2005-07-18 09:27:57 51°15.537 2°54.652 23.0206 4.751454 30.849951 -0.578993
2005-07-18 09:28:03 51°15.558 2°54.644 23.0073 4.751559 30.85027 -0.612702
2005-07-18 09:28:07 51°15.575 2°54.638 23.0178 4.751559 30.85027 -0.578993
2005-07-18 09:28:12 51°15.592 2°54.631 23.0271 4.751454 30.850399 -0.578993
2005-07-18 09:28:17 51°15.611 2°54.624 23.0324 4.751559 30.850717 -0.578993
2005-07-18 09:28:23 51°15.634 2°54.615 23.0055 4.751559 30.850717 -0.578993
2005-07-18 09:28:27 51°15.652 2°54.608 23.0106 4.751243 30.849314 -0.578993
2005-07-18 09:28:32 51°15.671 2°54.601 23.0076 4.751559 30.851613 -0.612702
2005-07-18 09:28:37 51°15.69 2°54.593 23.0244 4.751454 30.850847 -0.578993
2005-07-18 09:28:42 51°15.709 2°54.586 22.9993 4.751348 30.849633 -0.578993
2005-07-18 09:28:47 51°15.728 2°54.578 23.0212 4.751243 30.849314 -0.578993
2005-07-18 09:28:52 51°15.747 2°54.571 23.0301 4.751243 30.849314 -0.578993
2005-07-18 09:28:57 51°15.767 2°54.564 23.0192 4.751348 30.850081 -0.578993
2005-07-18 09:29:03 51°15.788 2°54.556 23.0209 4.751348 30.850976 -0.612702
2005-07-18 09:29:08 51°15.807 2°54.548 22.9987 4.751348 30.850976 -0.578993
2005-07-18 09:29:11 51°15.82 2°54.543 23.0291 4.751243 30.850658 -0.578993
2005-07-18 09:29:17 51°15.841 2°54.536 23.0222 4.751454 30.85219 -0.612702
2005-07-18 09:29:23 51°15.864 2°54.527 23.0107 4.751454 30.85219 -0.612702
2005-07-18 09:29:27 51°15.881 2°54.52 23.006 4.751137 30.849891 -0.612702
2005-07-18 09:29:33 51°15.902 2°54.512 23.0069 4.751243 30.851106 -0.578993
2005-07-18 09:29:37 51°15.917 2°54.506 23.0213 4.751137 30.850339 -0.578993
2005-07-18 09:29:42 51°15.936 2°54.5 22.9885 4.751243 30.851106 -0.612702
2005-07-18 09:29:47 51°15.957 2°54.492 22.9875 4.751137 30.850787 -0.578993
2005-07-18 09:29:53 51°15.976 2°54.486 23.0152 4.751137 30.850787 -0.578993
2005-07-18 09:29:57 51°15.989 2°54.481 23.0199 4.751138 30.851235 -0.578993
2005-07-18 09:30:02 51°16.007 2°54.475 23.0232 4.751032 30.851812 -0.578993
2005-07-18 09:30:08 51°16.023 2°54.47 23.0331 4.751138 30.852131 -0.578993
2005-07-18 09:30:12 51°16.034 2°54.467 23.0293 4.751032 30.85226 -0.578993
2005-07-18 09:30:17 51°16.047 2°54.462 23.0267 4.750927 30.851046 -0.578993
2005-07-18 09:30:22 51°16.061 2°54.457 23.0096 4.750927 30.851046 -0.578993
2005-07-18 09:30:27 51°16.073 2°54.452 23.0437 4.750927 30.851046 -0.578993
2005-07-18 09:30:32 51°16.085 2°54.448 23.0414 4.751032 30.851812 -0.578993
2005-07-18 09:30:37 51°16.095 2°54.444 23.0183 4.751138 30.852579 -0.578993
2005-07-18 09:30:42 51°16.107 2°54.44 23.0382 4.750927 30.851046 -0.612702
2005-07-18 09:30:47 51°16.118 2°54.436 23.0209 4.750716 30.849961 -0.578993
2005-07-18 09:30:52 51°16.128 2°54.433 23.0415 4.750716 30.849961 -0.578993
2005-07-18 09:30:57 51°16.138 2°54.43 23.0427 4.751032 30.852708 -0.578993
2005-07-18 09:31:02 51°16.148 2°54.426 23.0341 4.750716 30.850857 -0.612702
2005-07-18 09:31:07 51°16.158 2°54.423 23.0366 4.750821 30.851623 -0.578993